<?xml version="1.0" encoding="UTF-8" standalone="no" ?>
<gpx xmlns="http://www.topografix.com/GPX/1/1" xmlns:xsi="http://www.w3.org/2001/XMLSchema-instance" xsi:schemaLocation="http://www.topografix.com/GPX/1/1 http://www.topografix.com/GPX/1/1/gpx.xsd" version="1.1" creator="VisuGPX - https://www.visugpx.com">
  <metadata>
    <name>La Boissière</name>
    <desc><![CDATA[De La Boissière à Aniane et retour par les randonneurs de l\'ANR 34 le jeudi 17 octobre 2013.]]></desc>
  </metadata>
  <wpt lat="43.66456" lon="3.6457">
    <ele>213</ele>
  </wpt>
  <wpt lat="43.68308" lon="3.59813">
    <ele>132</ele>
  </wpt>
  <wpt lat="43.67394" lon="3.60487">
    <ele>132</ele>
  </wpt>
  <wpt lat="43.66437" lon="3.6456">
    <ele>213</ele>
  </wpt>
  <trk>
    <name><![CDATA[La Boissiere]]></name>
    <trkseg>
      <trkpt lat="43.66456" lon="3.6457">
        <ele>213</ele>
        <time>2013-10-17T06:27:19Z</time>
      </trkpt>
      <trkpt lat="43.6644" lon="3.64558">
        <ele>213</ele>
        <time>2013-10-17T06:30:51Z</time>
      </trkpt>
      <trkpt lat="43.66456" lon="3.64538">
        <ele>213</ele>
        <time>2013-10-17T06:33:12Z</time>
      </trkpt>
      <trkpt lat="43.66476" lon="3.64527">
        <ele>213</ele>
        <time>2013-10-17T06:33:36Z</time>
      </trkpt>
      <trkpt lat="43.66496" lon="3.64525">
        <ele>213</ele>
        <time>2013-10-17T06:33:49Z</time>
      </trkpt>
      <trkpt lat="43.66515" lon="3.64528">
        <ele>214</ele>
        <time>2013-10-17T06:34:02Z</time>
      </trkpt>
      <trkpt lat="43.66539" lon="3.64519">
        <ele>215</ele>
        <time>2013-10-17T06:34:10Z</time>
      </trkpt>
      <trkpt lat="43.6656" lon="3.64508">
        <ele>215</ele>
        <time>2013-10-17T06:34:25Z</time>
      </trkpt>
      <trkpt lat="43.66577" lon="3.64517">
        <ele>215</ele>
        <time>2013-10-17T06:34:38Z</time>
      </trkpt>
      <trkpt lat="43.66606" lon="3.64501">
        <ele>217</ele>
        <time>2013-10-17T06:35:36Z</time>
      </trkpt>
      <trkpt lat="43.66625" lon="3.64505">
        <ele>217</ele>
        <time>2013-10-17T06:35:42Z</time>
      </trkpt>
      <trkpt lat="43.66646" lon="3.64512">
        <ele>217</ele>
        <time>2013-10-17T06:36:09Z</time>
      </trkpt>
      <trkpt lat="43.66665" lon="3.64509">
        <ele>218</ele>
        <time>2013-10-17T06:36:24Z</time>
      </trkpt>
      <trkpt lat="43.66687" lon="3.64514">
        <ele>218</ele>
        <time>2013-10-17T06:36:43Z</time>
      </trkpt>
      <trkpt lat="43.6678" lon="3.64564">
        <ele>218</ele>
        <time>2013-10-17T06:38:06Z</time>
      </trkpt>
      <trkpt lat="43.66798" lon="3.64571">
        <ele>218</ele>
        <time>2013-10-17T06:38:18Z</time>
      </trkpt>
      <trkpt lat="43.66815" lon="3.64582">
        <ele>218</ele>
        <time>2013-10-17T06:38:36Z</time>
      </trkpt>
      <trkpt lat="43.66834" lon="3.64586">
        <ele>219</ele>
        <time>2013-10-17T06:38:54Z</time>
      </trkpt>
      <trkpt lat="43.66857" lon="3.64593">
        <ele>219</ele>
        <time>2013-10-17T06:39:21Z</time>
      </trkpt>
      <trkpt lat="43.66881" lon="3.64604">
        <ele>218</ele>
        <time>2013-10-17T06:39:30Z</time>
      </trkpt>
      <trkpt lat="43.66899" lon="3.64611">
        <ele>218</ele>
        <time>2013-10-17T06:39:39Z</time>
      </trkpt>
      <trkpt lat="43.66922" lon="3.64606">
        <ele>217</ele>
        <time>2013-10-17T06:39:51Z</time>
      </trkpt>
      <trkpt lat="43.6694" lon="3.64607">
        <ele>217</ele>
        <time>2013-10-17T06:40:15Z</time>
      </trkpt>
      <trkpt lat="43.66957" lon="3.64587">
        <ele>217</ele>
        <time>2013-10-17T06:40:36Z</time>
      </trkpt>
      <trkpt lat="43.6698" lon="3.64586">
        <ele>217</ele>
        <time>2013-10-17T06:40:45Z</time>
      </trkpt>
      <trkpt lat="43.67" lon="3.64576">
        <ele>217</ele>
        <time>2013-10-17T06:40:57Z</time>
      </trkpt>
      <trkpt lat="43.67019" lon="3.64566">
        <ele>216</ele>
        <time>2013-10-17T06:41:12Z</time>
      </trkpt>
      <trkpt lat="43.67039" lon="3.64556">
        <ele>215</ele>
        <time>2013-10-17T06:41:33Z</time>
      </trkpt>
      <trkpt lat="43.67055" lon="3.64541">
        <ele>215</ele>
        <time>2013-10-17T06:41:48Z</time>
      </trkpt>
      <trkpt lat="43.67075" lon="3.64532">
        <ele>215</ele>
        <time>2013-10-17T06:42:03Z</time>
      </trkpt>
      <trkpt lat="43.67095" lon="3.64518">
        <ele>213</ele>
        <time>2013-10-17T06:42:21Z</time>
      </trkpt>
      <trkpt lat="43.67113" lon="3.64505">
        <ele>213</ele>
        <time>2013-10-17T06:42:36Z</time>
      </trkpt>
      <trkpt lat="43.67129" lon="3.64494">
        <ele>212</ele>
        <time>2013-10-17T06:42:48Z</time>
      </trkpt>
      <trkpt lat="43.67147" lon="3.64488">
        <ele>212</ele>
        <time>2013-10-17T06:43:00Z</time>
      </trkpt>
      <trkpt lat="43.67159" lon="3.64469">
        <ele>211</ele>
        <time>2013-10-17T06:43:30Z</time>
      </trkpt>
      <trkpt lat="43.67174" lon="3.64454">
        <ele>211</ele>
        <time>2013-10-17T06:43:42Z</time>
      </trkpt>
      <trkpt lat="43.67192" lon="3.6445">
        <ele>210</ele>
        <time>2013-10-17T06:43:51Z</time>
      </trkpt>
      <trkpt lat="43.67208" lon="3.64436">
        <ele>210</ele>
        <time>2013-10-17T06:44:06Z</time>
      </trkpt>
      <trkpt lat="43.67225" lon="3.6442">
        <ele>210</ele>
        <time>2013-10-17T06:44:18Z</time>
      </trkpt>
      <trkpt lat="43.67252" lon="3.6441">
        <ele>208</ele>
        <time>2013-10-17T06:44:43Z</time>
      </trkpt>
      <trkpt lat="43.67269" lon="3.64399">
        <ele>208</ele>
        <time>2013-10-17T06:45:10Z</time>
      </trkpt>
      <trkpt lat="43.6729" lon="3.64402">
        <ele>208</ele>
        <time>2013-10-17T06:45:22Z</time>
      </trkpt>
      <trkpt lat="43.67315" lon="3.64403">
        <ele>208</ele>
        <time>2013-10-17T06:45:34Z</time>
      </trkpt>
      <trkpt lat="43.67334" lon="3.64405">
        <ele>210</ele>
        <time>2013-10-17T06:45:46Z</time>
      </trkpt>
      <trkpt lat="43.67354" lon="3.64397">
        <ele>210</ele>
        <time>2013-10-17T06:46:04Z</time>
      </trkpt>
      <trkpt lat="43.67373" lon="3.64392">
        <ele>211</ele>
        <time>2013-10-17T06:46:19Z</time>
      </trkpt>
      <trkpt lat="43.67398" lon="3.6439">
        <ele>211</ele>
        <time>2013-10-17T06:46:31Z</time>
      </trkpt>
      <trkpt lat="43.67417" lon="3.64387">
        <ele>212</ele>
        <time>2013-10-17T06:46:43Z</time>
      </trkpt>
      <trkpt lat="43.67437" lon="3.64383">
        <ele>213</ele>
        <time>2013-10-17T06:47:01Z</time>
      </trkpt>
      <trkpt lat="43.67479" lon="3.64383">
        <ele>213</ele>
        <time>2013-10-17T06:47:38Z</time>
      </trkpt>
      <trkpt lat="43.67493" lon="3.64367">
        <ele>212</ele>
        <time>2013-10-17T06:47:59Z</time>
      </trkpt>
      <trkpt lat="43.67517" lon="3.64353">
        <ele>211</ele>
        <time>2013-10-17T06:48:25Z</time>
      </trkpt>
      <trkpt lat="43.67536" lon="3.64337">
        <ele>211</ele>
        <time>2013-10-17T06:48:40Z</time>
      </trkpt>
      <trkpt lat="43.67553" lon="3.64325">
        <ele>208</ele>
        <time>2013-10-17T06:48:58Z</time>
      </trkpt>
      <trkpt lat="43.67569" lon="3.64307">
        <ele>208</ele>
        <time>2013-10-17T06:49:16Z</time>
      </trkpt>
      <trkpt lat="43.67588" lon="3.64292">
        <ele>206</ele>
        <time>2013-10-17T06:49:31Z</time>
      </trkpt>
      <trkpt lat="43.67606" lon="3.64284">
        <ele>206</ele>
        <time>2013-10-17T06:49:43Z</time>
      </trkpt>
      <trkpt lat="43.67628" lon="3.6428">
        <ele>205</ele>
        <time>2013-10-17T06:50:01Z</time>
      </trkpt>
      <trkpt lat="43.67648" lon="3.64272">
        <ele>205</ele>
        <time>2013-10-17T06:50:19Z</time>
      </trkpt>
      <trkpt lat="43.67669" lon="3.64266">
        <ele>203</ele>
        <time>2013-10-17T06:50:37Z</time>
      </trkpt>
      <trkpt lat="43.67688" lon="3.6426">
        <ele>203</ele>
        <time>2013-10-17T06:50:52Z</time>
      </trkpt>
      <trkpt lat="43.67708" lon="3.6425">
        <ele>203</ele>
        <time>2013-10-17T06:51:10Z</time>
      </trkpt>
      <trkpt lat="43.67727" lon="3.6424">
        <ele>202</ele>
        <time>2013-10-17T06:51:25Z</time>
      </trkpt>
      <trkpt lat="43.67744" lon="3.6423">
        <ele>202</ele>
        <time>2013-10-17T06:51:40Z</time>
      </trkpt>
      <trkpt lat="43.67765" lon="3.64226">
        <ele>201</ele>
        <time>2013-10-17T06:51:58Z</time>
      </trkpt>
      <trkpt lat="43.67784" lon="3.64221">
        <ele>201</ele>
        <time>2013-10-17T06:52:10Z</time>
      </trkpt>
      <trkpt lat="43.67802" lon="3.64216">
        <ele>201</ele>
        <time>2013-10-17T06:52:22Z</time>
      </trkpt>
      <trkpt lat="43.6782" lon="3.6421">
        <ele>201</ele>
        <time>2013-10-17T06:52:31Z</time>
      </trkpt>
      <trkpt lat="43.67839" lon="3.64211">
        <ele>201</ele>
        <time>2013-10-17T06:52:40Z</time>
      </trkpt>
      <trkpt lat="43.67859" lon="3.6421">
        <ele>201</ele>
        <time>2013-10-17T06:53:10Z</time>
      </trkpt>
      <trkpt lat="43.67876" lon="3.642">
        <ele>200</ele>
        <time>2013-10-17T06:53:25Z</time>
      </trkpt>
      <trkpt lat="43.67894" lon="3.64191">
        <ele>200</ele>
        <time>2013-10-17T06:53:43Z</time>
      </trkpt>
      <trkpt lat="43.67914" lon="3.64193">
        <ele>200</ele>
        <time>2013-10-17T06:53:55Z</time>
      </trkpt>
      <trkpt lat="43.67933" lon="3.6419">
        <ele>199</ele>
        <time>2013-10-17T06:54:10Z</time>
      </trkpt>
      <trkpt lat="43.67954" lon="3.64184">
        <ele>198</ele>
        <time>2013-10-17T06:54:31Z</time>
      </trkpt>
      <trkpt lat="43.67975" lon="3.64181">
        <ele>198</ele>
        <time>2013-10-17T06:54:49Z</time>
      </trkpt>
      <trkpt lat="43.67994" lon="3.64169">
        <ele>197</ele>
        <time>2013-10-17T06:55:01Z</time>
      </trkpt>
      <trkpt lat="43.68012" lon="3.64174">
        <ele>196</ele>
        <time>2013-10-17T06:55:19Z</time>
      </trkpt>
      <trkpt lat="43.68031" lon="3.64172">
        <ele>195</ele>
        <time>2013-10-17T06:55:28Z</time>
      </trkpt>
      <trkpt lat="43.68052" lon="3.64168">
        <ele>194</ele>
        <time>2013-10-17T06:55:37Z</time>
      </trkpt>
      <trkpt lat="43.68069" lon="3.64163">
        <ele>194</ele>
        <time>2013-10-17T06:55:52Z</time>
      </trkpt>
      <trkpt lat="43.68092" lon="3.64161">
        <ele>193</ele>
        <time>2013-10-17T06:56:16Z</time>
      </trkpt>
      <trkpt lat="43.68115" lon="3.64157">
        <ele>193</ele>
        <time>2013-10-17T06:56:28Z</time>
      </trkpt>
      <trkpt lat="43.68133" lon="3.64161">
        <ele>193</ele>
        <time>2013-10-17T06:56:46Z</time>
      </trkpt>
      <trkpt lat="43.6815" lon="3.6417">
        <ele>193</ele>
        <time>2013-10-17T06:57:04Z</time>
      </trkpt>
      <trkpt lat="43.68168" lon="3.64164">
        <ele>192</ele>
        <time>2013-10-17T06:57:25Z</time>
      </trkpt>
      <trkpt lat="43.68189" lon="3.64167">
        <ele>193</ele>
        <time>2013-10-17T06:57:40Z</time>
      </trkpt>
      <trkpt lat="43.68209" lon="3.64166">
        <ele>193</ele>
        <time>2013-10-17T06:57:52Z</time>
      </trkpt>
      <trkpt lat="43.68228" lon="3.64176">
        <ele>194</ele>
        <time>2013-10-17T06:58:10Z</time>
      </trkpt>
      <trkpt lat="43.68246" lon="3.64181">
        <ele>194</ele>
        <time>2013-10-17T06:58:22Z</time>
      </trkpt>
      <trkpt lat="43.68264" lon="3.64183">
        <ele>194</ele>
        <time>2013-10-17T06:58:37Z</time>
      </trkpt>
      <trkpt lat="43.68283" lon="3.64184">
        <ele>194</ele>
        <time>2013-10-17T06:58:55Z</time>
      </trkpt>
      <trkpt lat="43.68301" lon="3.64177">
        <ele>193</ele>
        <time>2013-10-17T06:59:10Z</time>
      </trkpt>
      <trkpt lat="43.68318" lon="3.64163">
        <ele>192</ele>
        <time>2013-10-17T06:59:25Z</time>
      </trkpt>
      <trkpt lat="43.68335" lon="3.64148">
        <ele>192</ele>
        <time>2013-10-17T06:59:40Z</time>
      </trkpt>
      <trkpt lat="43.68353" lon="3.64128">
        <ele>192</ele>
        <time>2013-10-17T06:59:55Z</time>
      </trkpt>
      <trkpt lat="43.68372" lon="3.64116">
        <ele>192</ele>
        <time>2013-10-17T07:00:16Z</time>
      </trkpt>
      <trkpt lat="43.68385" lon="3.64098">
        <ele>192</ele>
        <time>2013-10-17T07:00:31Z</time>
      </trkpt>
      <trkpt lat="43.68402" lon="3.64088">
        <ele>193</ele>
        <time>2013-10-17T07:00:43Z</time>
      </trkpt>
      <trkpt lat="43.68419" lon="3.64075">
        <ele>193</ele>
        <time>2013-10-17T07:00:58Z</time>
      </trkpt>
      <trkpt lat="43.68439" lon="3.64078">
        <ele>194</ele>
        <time>2013-10-17T07:01:16Z</time>
      </trkpt>
      <trkpt lat="43.68461" lon="3.64073">
        <ele>195</ele>
        <time>2013-10-17T07:01:37Z</time>
      </trkpt>
      <trkpt lat="43.68719" lon="3.63692">
        <ele>203</ele>
        <time>2013-10-17T07:14:46Z</time>
      </trkpt>
      <trkpt lat="43.68729" lon="3.63671">
        <ele>203</ele>
        <time>2013-10-17T07:14:53Z</time>
      </trkpt>
      <trkpt lat="43.68863" lon="3.6342">
        <ele>196</ele>
        <time>2013-10-17T07:18:40Z</time>
      </trkpt>
      <trkpt lat="43.6884" lon="3.62895">
        <ele>184</ele>
        <time>2013-10-17T07:26:20Z</time>
      </trkpt>
      <trkpt lat="43.68818" lon="3.62867">
        <ele>183</ele>
        <time>2013-10-17T07:26:41Z</time>
      </trkpt>
      <trkpt lat="43.68812" lon="3.62838">
        <ele>183</ele>
        <time>2013-10-17T07:27:08Z</time>
      </trkpt>
      <trkpt lat="43.68809" lon="3.62771">
        <ele>182</ele>
        <time>2013-10-17T07:27:35Z</time>
      </trkpt>
      <trkpt lat="43.68811" lon="3.62747">
        <ele>179</ele>
        <time>2013-10-17T07:28:11Z</time>
      </trkpt>
      <trkpt lat="43.68811" lon="3.62716">
        <ele>178</ele>
        <time>2013-10-17T07:28:23Z</time>
      </trkpt>
      <trkpt lat="43.68803" lon="3.62689">
        <ele>177</ele>
        <time>2013-10-17T07:28:35Z</time>
      </trkpt>
      <trkpt lat="43.68794" lon="3.62662">
        <ele>174</ele>
        <time>2013-10-17T07:28:53Z</time>
      </trkpt>
      <trkpt lat="43.68789" lon="3.62637">
        <ele>173</ele>
        <time>2013-10-17T07:29:08Z</time>
      </trkpt>
      <trkpt lat="43.68781" lon="3.62612">
        <ele>173</ele>
        <time>2013-10-17T07:29:23Z</time>
      </trkpt>
      <trkpt lat="43.68767" lon="3.6259">
        <ele>172</ele>
        <time>2013-10-17T07:29:38Z</time>
      </trkpt>
      <trkpt lat="43.68758" lon="3.62568">
        <ele>170</ele>
        <time>2013-10-17T07:29:53Z</time>
      </trkpt>
      <trkpt lat="43.6875" lon="3.62542">
        <ele>168</ele>
        <time>2013-10-17T07:30:08Z</time>
      </trkpt>
      <trkpt lat="43.68739" lon="3.62515">
        <ele>168</ele>
        <time>2013-10-17T07:30:26Z</time>
      </trkpt>
      <trkpt lat="43.68729" lon="3.6249">
        <ele>168</ele>
        <time>2013-10-17T07:30:44Z</time>
      </trkpt>
      <trkpt lat="43.68718" lon="3.62469">
        <ele>168</ele>
        <time>2013-10-17T07:30:59Z</time>
      </trkpt>
      <trkpt lat="43.68701" lon="3.62449">
        <ele>167</ele>
        <time>2013-10-17T07:31:14Z</time>
      </trkpt>
      <trkpt lat="43.68691" lon="3.62428">
        <ele>167</ele>
        <time>2013-10-17T07:31:32Z</time>
      </trkpt>
      <trkpt lat="43.68673" lon="3.62415">
        <ele>167</ele>
        <time>2013-10-17T07:31:47Z</time>
      </trkpt>
      <trkpt lat="43.68657" lon="3.62399">
        <ele>167</ele>
        <time>2013-10-17T07:32:02Z</time>
      </trkpt>
      <trkpt lat="43.68641" lon="3.62382">
        <ele>167</ele>
        <time>2013-10-17T07:32:20Z</time>
      </trkpt>
      <trkpt lat="43.68628" lon="3.62364">
        <ele>167</ele>
        <time>2013-10-17T07:32:38Z</time>
      </trkpt>
      <trkpt lat="43.6861" lon="3.62348">
        <ele>168</ele>
        <time>2013-10-17T07:32:53Z</time>
      </trkpt>
      <trkpt lat="43.68595" lon="3.62329">
        <ele>170</ele>
        <time>2013-10-17T07:33:11Z</time>
      </trkpt>
      <trkpt lat="43.68588" lon="3.62303">
        <ele>170</ele>
        <time>2013-10-17T07:33:29Z</time>
      </trkpt>
      <trkpt lat="43.68577" lon="3.62281">
        <ele>168</ele>
        <time>2013-10-17T07:33:47Z</time>
      </trkpt>
      <trkpt lat="43.68571" lon="3.62254">
        <ele>169</ele>
        <time>2013-10-17T07:34:02Z</time>
      </trkpt>
      <trkpt lat="43.68561" lon="3.62227">
        <ele>169</ele>
        <time>2013-10-17T07:34:17Z</time>
      </trkpt>
      <trkpt lat="43.68541" lon="3.62215">
        <ele>169</ele>
        <time>2013-10-17T07:34:44Z</time>
      </trkpt>
      <trkpt lat="43.68525" lon="3.62201">
        <ele>168</ele>
        <time>2013-10-17T07:34:56Z</time>
      </trkpt>
      <trkpt lat="43.68506" lon="3.62195">
        <ele>168</ele>
        <time>2013-10-17T07:35:08Z</time>
      </trkpt>
      <trkpt lat="43.68489" lon="3.62185">
        <ele>164</ele>
        <time>2013-10-17T07:35:29Z</time>
      </trkpt>
      <trkpt lat="43.68471" lon="3.62172">
        <ele>164</ele>
        <time>2013-10-17T07:35:50Z</time>
      </trkpt>
      <trkpt lat="43.68452" lon="3.62159">
        <ele>162</ele>
        <time>2013-10-17T07:36:05Z</time>
      </trkpt>
      <trkpt lat="43.68433" lon="3.62148">
        <ele>161</ele>
        <time>2013-10-17T07:36:23Z</time>
      </trkpt>
      <trkpt lat="43.68414" lon="3.62137">
        <ele>156</ele>
        <time>2013-10-17T07:36:41Z</time>
      </trkpt>
      <trkpt lat="43.68393" lon="3.62131">
        <ele>155</ele>
        <time>2013-10-17T07:36:56Z</time>
      </trkpt>
      <trkpt lat="43.68374" lon="3.62121">
        <ele>154</ele>
        <time>2013-10-17T07:37:17Z</time>
      </trkpt>
      <trkpt lat="43.68356" lon="3.62113">
        <ele>153</ele>
        <time>2013-10-17T07:37:32Z</time>
      </trkpt>
      <trkpt lat="43.68334" lon="3.62104">
        <ele>152</ele>
        <time>2013-10-17T07:47:45Z</time>
      </trkpt>
      <trkpt lat="43.68314" lon="3.62102">
        <ele>148</ele>
        <time>2013-10-17T07:47:57Z</time>
      </trkpt>
      <trkpt lat="43.68296" lon="3.62094">
        <ele>147</ele>
        <time>2013-10-17T07:48:12Z</time>
      </trkpt>
      <trkpt lat="43.68281" lon="3.62078">
        <ele>144</ele>
        <time>2013-10-17T07:48:33Z</time>
      </trkpt>
      <trkpt lat="43.6828" lon="3.62052">
        <ele>144</ele>
        <time>2013-10-17T07:48:45Z</time>
      </trkpt>
      <trkpt lat="43.68285" lon="3.62027">
        <ele>144</ele>
        <time>2013-10-17T07:49:03Z</time>
      </trkpt>
      <trkpt lat="43.68277" lon="3.61999">
        <ele>140</ele>
        <time>2013-10-17T07:49:18Z</time>
      </trkpt>
      <trkpt lat="43.68275" lon="3.61972">
        <ele>140</ele>
        <time>2013-10-17T07:49:39Z</time>
      </trkpt>
      <trkpt lat="43.68277" lon="3.61945">
        <ele>139</ele>
        <time>2013-10-17T07:50:15Z</time>
      </trkpt>
      <trkpt lat="43.68286" lon="3.61914">
        <ele>137</ele>
        <time>2013-10-17T07:50:36Z</time>
      </trkpt>
      <trkpt lat="43.68291" lon="3.61889">
        <ele>137</ele>
        <time>2013-10-17T07:50:51Z</time>
      </trkpt>
      <trkpt lat="43.68299" lon="3.61855">
        <ele>137</ele>
        <time>2013-10-17T07:51:15Z</time>
      </trkpt>
      <trkpt lat="43.68303" lon="3.61827">
        <ele>137</ele>
        <time>2013-10-17T07:51:24Z</time>
      </trkpt>
      <trkpt lat="43.683" lon="3.61797">
        <ele>136</ele>
        <time>2013-10-17T07:51:48Z</time>
      </trkpt>
      <trkpt lat="43.68304" lon="3.61764">
        <ele>136</ele>
        <time>2013-10-17T07:51:57Z</time>
      </trkpt>
      <trkpt lat="43.68311" lon="3.61737">
        <ele>136</ele>
        <time>2013-10-17T07:52:09Z</time>
      </trkpt>
      <trkpt lat="43.68313" lon="3.61712">
        <ele>136</ele>
        <time>2013-10-17T07:52:21Z</time>
      </trkpt>
      <trkpt lat="43.68324" lon="3.61691">
        <ele>137</ele>
        <time>2013-10-17T07:52:36Z</time>
      </trkpt>
      <trkpt lat="43.68328" lon="3.61664">
        <ele>139</ele>
        <time>2013-10-17T07:52:54Z</time>
      </trkpt>
      <trkpt lat="43.68338" lon="3.61639">
        <ele>141</ele>
        <time>2013-10-17T07:53:09Z</time>
      </trkpt>
      <trkpt lat="43.68349" lon="3.61616">
        <ele>142</ele>
        <time>2013-10-17T07:53:27Z</time>
      </trkpt>
      <trkpt lat="43.68361" lon="3.61596">
        <ele>142</ele>
        <time>2013-10-17T07:53:42Z</time>
      </trkpt>
      <trkpt lat="43.68374" lon="3.61579">
        <ele>142</ele>
        <time>2013-10-17T07:53:57Z</time>
      </trkpt>
      <trkpt lat="43.68388" lon="3.61559">
        <ele>142</ele>
        <time>2013-10-17T07:54:09Z</time>
      </trkpt>
      <trkpt lat="43.68399" lon="3.61535">
        <ele>142</ele>
        <time>2013-10-17T07:54:24Z</time>
      </trkpt>
      <trkpt lat="43.68417" lon="3.61528">
        <ele>143</ele>
        <time>2013-10-17T07:54:36Z</time>
      </trkpt>
      <trkpt lat="43.68433" lon="3.61501">
        <ele>143</ele>
        <time>2013-10-17T07:54:50Z</time>
      </trkpt>
      <trkpt lat="43.68456" lon="3.6149">
        <ele>142</ele>
        <time>2013-10-17T07:55:11Z</time>
      </trkpt>
      <trkpt lat="43.68474" lon="3.61477">
        <ele>142</ele>
        <time>2013-10-17T07:55:38Z</time>
      </trkpt>
      <trkpt lat="43.68495" lon="3.6148">
        <ele>142</ele>
        <time>2013-10-17T07:55:56Z</time>
      </trkpt>
      <trkpt lat="43.68513" lon="3.61467">
        <ele>141</ele>
        <time>2013-10-17T07:56:11Z</time>
      </trkpt>
      <trkpt lat="43.68531" lon="3.61457">
        <ele>141</ele>
        <time>2013-10-17T07:56:38Z</time>
      </trkpt>
      <trkpt lat="43.68552" lon="3.61449">
        <ele>141</ele>
        <time>2013-10-17T07:56:53Z</time>
      </trkpt>
      <trkpt lat="43.68675" lon="3.61422">
        <ele>139</ele>
        <time>2013-10-17T07:58:37Z</time>
      </trkpt>
      <trkpt lat="43.68699" lon="3.61413">
        <ele>139</ele>
        <time>2013-10-17T07:58:46Z</time>
      </trkpt>
      <trkpt lat="43.68717" lon="3.61409">
        <ele>139</ele>
        <time>2013-10-17T07:58:58Z</time>
      </trkpt>
      <trkpt lat="43.68737" lon="3.61414">
        <ele>137</ele>
        <time>2013-10-17T07:59:25Z</time>
      </trkpt>
      <trkpt lat="43.68758" lon="3.61413">
        <ele>137</ele>
        <time>2013-10-17T07:59:42Z</time>
      </trkpt>
      <trkpt lat="43.68779" lon="3.61399">
        <ele>139</ele>
        <time>2013-10-17T07:59:57Z</time>
      </trkpt>
      <trkpt lat="43.68798" lon="3.61396">
        <ele>139</ele>
        <time>2013-10-17T08:00:18Z</time>
      </trkpt>
      <trkpt lat="43.68818" lon="3.61392">
        <ele>138</ele>
        <time>2013-10-17T08:00:36Z</time>
      </trkpt>
      <trkpt lat="43.68837" lon="3.61383">
        <ele>136</ele>
        <time>2013-10-17T08:00:51Z</time>
      </trkpt>
      <trkpt lat="43.68854" lon="3.61369">
        <ele>137</ele>
        <time>2013-10-17T08:01:15Z</time>
      </trkpt>
      <trkpt lat="43.68873" lon="3.61357">
        <ele>137</ele>
        <time>2013-10-17T08:01:33Z</time>
      </trkpt>
      <trkpt lat="43.68887" lon="3.61342">
        <ele>136</ele>
        <time>2013-10-17T08:01:48Z</time>
      </trkpt>
      <trkpt lat="43.68903" lon="3.61321">
        <ele>139</ele>
        <time>2013-10-17T08:02:03Z</time>
      </trkpt>
      <trkpt lat="43.68936" lon="3.61249">
        <ele>138</ele>
        <time>2013-10-17T08:02:56Z</time>
      </trkpt>
      <trkpt lat="43.68962" lon="3.61076">
        <ele>131</ele>
        <time>2013-10-17T08:04:43Z</time>
      </trkpt>
      <trkpt lat="43.68949" lon="3.61027">
        <ele>131</ele>
        <time>2013-10-17T08:05:33Z</time>
      </trkpt>
      <trkpt lat="43.68948" lon="3.60998">
        <ele>129</ele>
        <time>2013-10-17T08:06:24Z</time>
      </trkpt>
      <trkpt lat="43.68958" lon="3.60973">
        <ele>129</ele>
        <time>2013-10-17T08:08:10Z</time>
      </trkpt>
      <trkpt lat="43.68964" lon="3.60904">
        <ele>131</ele>
        <time>2013-10-17T08:08:21Z</time>
      </trkpt>
      <trkpt lat="43.68964" lon="3.60872">
        <ele>131</ele>
        <time>2013-10-17T08:08:25Z</time>
      </trkpt>
      <trkpt lat="43.68965" lon="3.60836">
        <ele>132</ele>
        <time>2013-10-17T08:08:31Z</time>
      </trkpt>
      <trkpt lat="43.6896" lon="3.60809">
        <ele>128</ele>
        <time>2013-10-17T08:08:37Z</time>
      </trkpt>
      <trkpt lat="43.68955" lon="3.60778">
        <ele>126</ele>
        <time>2013-10-17T08:08:46Z</time>
      </trkpt>
      <trkpt lat="43.68949" lon="3.60748">
        <ele>123</ele>
        <time>2013-10-17T08:08:58Z</time>
      </trkpt>
      <trkpt lat="43.6895" lon="3.60721">
        <ele>124</ele>
        <time>2013-10-17T08:09:13Z</time>
      </trkpt>
      <trkpt lat="43.68955" lon="3.60696">
        <ele>124</ele>
        <time>2013-10-17T08:09:28Z</time>
      </trkpt>
      <trkpt lat="43.6896" lon="3.6067">
        <ele>124</ele>
        <time>2013-10-17T08:09:43Z</time>
      </trkpt>
      <trkpt lat="43.68969" lon="3.60645">
        <ele>127</ele>
        <time>2013-10-17T08:10:01Z</time>
      </trkpt>
      <trkpt lat="43.68978" lon="3.60621">
        <ele>128</ele>
        <time>2013-10-17T08:10:19Z</time>
      </trkpt>
      <trkpt lat="43.68991" lon="3.606">
        <ele>126</ele>
        <time>2013-10-17T08:10:34Z</time>
      </trkpt>
      <trkpt lat="43.69003" lon="3.60577">
        <ele>121</ele>
        <time>2013-10-17T08:10:49Z</time>
      </trkpt>
      <trkpt lat="43.69012" lon="3.60554">
        <ele>122</ele>
        <time>2013-10-17T08:11:07Z</time>
      </trkpt>
      <trkpt lat="43.69035" lon="3.60508">
        <ele>124</ele>
        <time>2013-10-17T08:11:36Z</time>
      </trkpt>
      <trkpt lat="43.69049" lon="3.60488">
        <ele>124</ele>
        <time>2013-10-17T08:11:48Z</time>
      </trkpt>
      <trkpt lat="43.69068" lon="3.60274">
        <ele>132</ele>
      </trkpt>
      <trkpt lat="43.69037" lon="3.60171">
        <ele>129</ele>
      </trkpt>
      <trkpt lat="43.69006" lon="3.60133">
        <ele>116</ele>
      </trkpt>
      <trkpt lat="43.68963" lon="3.60073">
        <ele>98</ele>
      </trkpt>
      <trkpt lat="43.68898" lon="3.6003">
        <ele>93</ele>
      </trkpt>
      <trkpt lat="43.68851" lon="3.60017">
        <ele>92</ele>
      </trkpt>
      <trkpt lat="43.68814" lon="3.60008">
        <ele>95</ele>
      </trkpt>
      <trkpt lat="43.68798" lon="3.59983">
        <ele>94</ele>
      </trkpt>
      <trkpt lat="43.68792" lon="3.59914">
        <ele>90</ele>
      </trkpt>
      <trkpt lat="43.68752" lon="3.59841">
        <ele>87</ele>
      </trkpt>
      <trkpt lat="43.68718" lon="3.59785">
        <ele>84</ele>
      </trkpt>
      <trkpt lat="43.68662" lon="3.59755">
        <ele>81</ele>
      </trkpt>
      <trkpt lat="43.68609" lon="3.59742">
        <ele>82</ele>
      </trkpt>
      <trkpt lat="43.68566" lon="3.59712">
        <ele>85</ele>
      </trkpt>
      <trkpt lat="43.68524" lon="3.59719">
        <ele>87</ele>
      </trkpt>
      <trkpt lat="43.68502" lon="3.59706">
        <ele>87</ele>
      </trkpt>
      <trkpt lat="43.68482" lon="3.59682">
        <ele>92</ele>
      </trkpt>
      <trkpt lat="43.68454" lon="3.59646">
        <ele>88</ele>
      </trkpt>
      <trkpt lat="43.68451" lon="3.59682">
        <ele>96</ele>
      </trkpt>
      <trkpt lat="43.68474" lon="3.59727">
        <ele>97</ele>
      </trkpt>
      <trkpt lat="43.68474" lon="3.59759">
        <ele>104</ele>
      </trkpt>
      <trkpt lat="43.68438" lon="3.59755">
        <ele>109</ele>
      </trkpt>
      <trkpt lat="43.68415" lon="3.59742">
        <ele>111</ele>
      </trkpt>
      <trkpt lat="43.68389" lon="3.59725">
        <ele>111</ele>
      </trkpt>
      <trkpt lat="43.68308" lon="3.59813">
        <ele>132</ele>
        <time>2013-10-17T08:44:56Z</time>
      </trkpt>
      <trkpt lat="43.68295" lon="3.59831">
        <ele>133</ele>
        <time>2013-10-17T08:45:20Z</time>
      </trkpt>
      <trkpt lat="43.68243" lon="3.59924">
        <ele>148</ele>
        <time>2013-10-17T08:46:50Z</time>
      </trkpt>
      <trkpt lat="43.68226" lon="3.59932">
        <ele>150</ele>
        <time>2013-10-17T08:47:13Z</time>
      </trkpt>
      <trkpt lat="43.68195" lon="3.59972">
        <ele>152</ele>
        <time>2013-10-17T08:51:19Z</time>
      </trkpt>
      <trkpt lat="43.68175" lon="3.5998">
        <ele>153</ele>
        <time>2013-10-17T08:51:25Z</time>
      </trkpt>
      <trkpt lat="43.68155" lon="3.59987">
        <ele>151</ele>
        <time>2013-10-17T08:51:37Z</time>
      </trkpt>
      <trkpt lat="43.68139" lon="3.60006">
        <ele>155</ele>
        <time>2013-10-17T08:51:52Z</time>
      </trkpt>
      <trkpt lat="43.68103" lon="3.60015">
        <ele>152</ele>
        <time>2013-10-17T08:52:20Z</time>
      </trkpt>
      <trkpt lat="43.68117" lon="3.60043">
        <ele>155</ele>
        <time>2013-10-17T08:52:23Z</time>
      </trkpt>
      <trkpt lat="43.6813" lon="3.60062">
        <ele>157</ele>
        <time>2013-10-17T08:52:47Z</time>
      </trkpt>
      <trkpt lat="43.68124" lon="3.60091">
        <ele>163</ele>
        <time>2013-10-17T08:53:17Z</time>
      </trkpt>
      <trkpt lat="43.68123" lon="3.60125">
        <ele>164</ele>
        <time>2013-10-17T08:53:29Z</time>
      </trkpt>
      <trkpt lat="43.68122" lon="3.6015">
        <ele>166</ele>
        <time>2013-10-17T08:53:41Z</time>
      </trkpt>
      <trkpt lat="43.68115" lon="3.60178">
        <ele>171</ele>
        <time>2013-10-17T08:53:56Z</time>
      </trkpt>
      <trkpt lat="43.68113" lon="3.60205">
        <ele>172</ele>
        <time>2013-10-17T08:54:50Z</time>
      </trkpt>
      <trkpt lat="43.68104" lon="3.60229">
        <ele>173</ele>
        <time>2013-10-17T08:55:11Z</time>
      </trkpt>
      <trkpt lat="43.68103" lon="3.60254">
        <ele>176</ele>
        <time>2013-10-17T08:55:26Z</time>
      </trkpt>
      <trkpt lat="43.68097" lon="3.60281">
        <ele>177</ele>
        <time>2013-10-17T08:55:41Z</time>
      </trkpt>
      <trkpt lat="43.68092" lon="3.60305">
        <ele>178</ele>
        <time>2013-10-17T08:56:05Z</time>
      </trkpt>
      <trkpt lat="43.68084" lon="3.60329">
        <ele>180</ele>
        <time>2013-10-17T08:56:29Z</time>
      </trkpt>
      <trkpt lat="43.68075" lon="3.6036">
        <ele>184</ele>
        <time>2013-10-17T08:56:56Z</time>
      </trkpt>
      <trkpt lat="43.68069" lon="3.60388">
        <ele>186</ele>
        <time>2013-10-17T08:57:23Z</time>
      </trkpt>
      <trkpt lat="43.68059" lon="3.60417">
        <ele>192</ele>
        <time>2013-10-17T08:57:32Z</time>
      </trkpt>
      <trkpt lat="43.68056" lon="3.60444">
        <ele>193</ele>
        <time>2013-10-17T08:57:50Z</time>
      </trkpt>
      <trkpt lat="43.6805" lon="3.6047">
        <ele>195</ele>
        <time>2013-10-17T08:58:20Z</time>
      </trkpt>
      <trkpt lat="43.68046" lon="3.60495">
        <ele>195</ele>
        <time>2013-10-17T08:58:32Z</time>
      </trkpt>
      <trkpt lat="43.68044" lon="3.60521">
        <ele>199</ele>
        <time>2013-10-17T08:58:56Z</time>
      </trkpt>
      <trkpt lat="43.6804" lon="3.60547">
        <ele>200</ele>
        <time>2013-10-17T08:59:20Z</time>
      </trkpt>
      <trkpt lat="43.68034" lon="3.60576">
        <ele>201</ele>
        <time>2013-10-17T08:59:32Z</time>
      </trkpt>
      <trkpt lat="43.68032" lon="3.60603">
        <ele>204</ele>
        <time>2013-10-17T08:59:44Z</time>
      </trkpt>
      <trkpt lat="43.68031" lon="3.60628">
        <ele>205</ele>
        <time>2013-10-17T08:59:59Z</time>
      </trkpt>
      <trkpt lat="43.68033" lon="3.60657">
        <ele>205</ele>
        <time>2013-10-17T09:00:17Z</time>
      </trkpt>
      <trkpt lat="43.68037" lon="3.60686">
        <ele>208</ele>
        <time>2013-10-17T09:00:38Z</time>
      </trkpt>
      <trkpt lat="43.68048" lon="3.60708">
        <ele>208</ele>
        <time>2013-10-17T09:01:26Z</time>
      </trkpt>
      <trkpt lat="43.68046" lon="3.60743">
        <ele>208</ele>
        <time>2013-10-17T09:04:47Z</time>
      </trkpt>
      <trkpt lat="43.68029" lon="3.60753">
        <ele>210</ele>
        <time>2013-10-17T09:05:08Z</time>
      </trkpt>
      <trkpt lat="43.68012" lon="3.60764">
        <ele>210</ele>
        <time>2013-10-17T09:07:50Z</time>
      </trkpt>
      <trkpt lat="43.67993" lon="3.60763">
        <ele>208</ele>
        <time>2013-10-17T09:08:08Z</time>
      </trkpt>
      <trkpt lat="43.67971" lon="3.60758">
        <ele>207</ele>
        <time>2013-10-17T09:08:26Z</time>
      </trkpt>
      <trkpt lat="43.67951" lon="3.60751">
        <ele>206</ele>
        <time>2013-10-17T09:08:47Z</time>
      </trkpt>
      <trkpt lat="43.67933" lon="3.6074">
        <ele>206</ele>
        <time>2013-10-17T09:09:08Z</time>
      </trkpt>
      <trkpt lat="43.67914" lon="3.60738">
        <ele>203</ele>
        <time>2013-10-17T09:09:23Z</time>
      </trkpt>
      <trkpt lat="43.67895" lon="3.60738">
        <ele>202</ele>
        <time>2013-10-17T09:09:41Z</time>
      </trkpt>
      <trkpt lat="43.67875" lon="3.60736">
        <ele>200</ele>
        <time>2013-10-17T09:09:59Z</time>
      </trkpt>
      <trkpt lat="43.6786" lon="3.60715">
        <ele>200</ele>
        <time>2013-10-17T09:10:17Z</time>
      </trkpt>
      <trkpt lat="43.67844" lon="3.60696">
        <ele>199</ele>
        <time>2013-10-17T09:10:32Z</time>
      </trkpt>
      <trkpt lat="43.67827" lon="3.60681">
        <ele>194</ele>
        <time>2013-10-17T09:10:50Z</time>
      </trkpt>
      <trkpt lat="43.67817" lon="3.6066">
        <ele>194</ele>
        <time>2013-10-17T09:11:11Z</time>
      </trkpt>
      <trkpt lat="43.67809" lon="3.60635">
        <ele>192</ele>
        <time>2013-10-17T09:11:29Z</time>
      </trkpt>
      <trkpt lat="43.67802" lon="3.6061">
        <ele>192</ele>
        <time>2013-10-17T09:11:50Z</time>
      </trkpt>
      <trkpt lat="43.6779" lon="3.60587">
        <ele>191</ele>
        <time>2013-10-17T09:12:08Z</time>
      </trkpt>
      <trkpt lat="43.67774" lon="3.60567">
        <ele>187</ele>
        <time>2013-10-17T09:12:23Z</time>
      </trkpt>
      <trkpt lat="43.67758" lon="3.6055">
        <ele>186</ele>
        <time>2013-10-17T09:12:47Z</time>
      </trkpt>
      <trkpt lat="43.67738" lon="3.6054">
        <ele>181</ele>
        <time>2013-10-17T09:13:02Z</time>
      </trkpt>
      <trkpt lat="43.67721" lon="3.60526">
        <ele>181</ele>
        <time>2013-10-17T09:13:17Z</time>
      </trkpt>
      <trkpt lat="43.67705" lon="3.60505">
        <ele>181</ele>
        <time>2013-10-17T09:13:38Z</time>
      </trkpt>
      <trkpt lat="43.67695" lon="3.60484">
        <ele>179</ele>
        <time>2013-10-17T09:13:53Z</time>
      </trkpt>
      <trkpt lat="43.67683" lon="3.60464">
        <ele>179</ele>
        <time>2013-10-17T09:14:08Z</time>
      </trkpt>
      <trkpt lat="43.67667" lon="3.60445">
        <ele>179</ele>
        <time>2013-10-17T09:14:29Z</time>
      </trkpt>
      <trkpt lat="43.6765" lon="3.60433">
        <ele>179</ele>
        <time>2013-10-17T09:14:44Z</time>
      </trkpt>
      <trkpt lat="43.67629" lon="3.60419">
        <ele>179</ele>
        <time>2013-10-17T09:15:02Z</time>
      </trkpt>
      <trkpt lat="43.67623" lon="3.60394">
        <ele>175</ele>
        <time>2013-10-17T09:15:20Z</time>
      </trkpt>
      <trkpt lat="43.67624" lon="3.60366">
        <ele>173</ele>
        <time>2013-10-17T09:15:41Z</time>
      </trkpt>
      <trkpt lat="43.6761" lon="3.60349">
        <ele>172</ele>
        <time>2013-10-17T09:15:53Z</time>
      </trkpt>
      <trkpt lat="43.67599" lon="3.60328">
        <ele>167</ele>
        <time>2013-10-17T09:15:59Z</time>
      </trkpt>
      <trkpt lat="43.67593" lon="3.603">
        <ele>165</ele>
        <time>2013-10-17T09:16:35Z</time>
      </trkpt>
      <trkpt lat="43.67589" lon="3.60274">
        <ele>164</ele>
        <time>2013-10-17T09:16:53Z</time>
      </trkpt>
      <trkpt lat="43.67584" lon="3.60248">
        <ele>163</ele>
        <time>2013-10-17T09:17:05Z</time>
      </trkpt>
      <trkpt lat="43.67573" lon="3.60222">
        <ele>166</ele>
        <time>2013-10-17T09:17:17Z</time>
      </trkpt>
      <trkpt lat="43.67555" lon="3.60217">
        <ele>167</ele>
        <time>2013-10-17T09:17:32Z</time>
      </trkpt>
      <trkpt lat="43.67537" lon="3.60224">
        <ele>168</ele>
        <time>2013-10-17T09:17:50Z</time>
      </trkpt>
      <trkpt lat="43.67526" lon="3.60245">
        <ele>169</ele>
        <time>2013-10-17T09:20:40Z</time>
      </trkpt>
      <trkpt lat="43.67513" lon="3.60262">
        <ele>168</ele>
        <time>2013-10-17T09:20:58Z</time>
      </trkpt>
      <trkpt lat="43.67503" lon="3.60282">
        <ele>167</ele>
        <time>2013-10-17T09:21:16Z</time>
      </trkpt>
      <trkpt lat="43.67494" lon="3.60304">
        <ele>164</ele>
        <time>2013-10-17T09:21:46Z</time>
      </trkpt>
      <trkpt lat="43.67484" lon="3.60331">
        <ele>163</ele>
        <time>2013-10-17T09:21:55Z</time>
      </trkpt>
      <trkpt lat="43.67482" lon="3.60362">
        <ele>157</ele>
        <time>2013-10-17T09:22:13Z</time>
      </trkpt>
      <trkpt lat="43.67471" lon="3.60388">
        <ele>155</ele>
        <time>2013-10-17T09:22:43Z</time>
      </trkpt>
      <trkpt lat="43.67468" lon="3.60415">
        <ele>155</ele>
        <time>2013-10-17T09:22:55Z</time>
      </trkpt>
      <trkpt lat="43.67458" lon="3.60438">
        <ele>150</ele>
        <time>2013-10-17T09:23:28Z</time>
      </trkpt>
      <trkpt lat="43.67448" lon="3.60461">
        <ele>148</ele>
        <time>2013-10-17T09:23:40Z</time>
      </trkpt>
      <trkpt lat="43.67442" lon="3.60486">
        <ele>146</ele>
        <time>2013-10-17T09:24:01Z</time>
      </trkpt>
      <trkpt lat="43.67437" lon="3.60511">
        <ele>141</ele>
        <time>2013-10-17T09:24:16Z</time>
      </trkpt>
      <trkpt lat="43.67434" lon="3.60539">
        <ele>141</ele>
        <time>2013-10-17T09:24:31Z</time>
      </trkpt>
      <trkpt lat="43.67443" lon="3.60567">
        <ele>140</ele>
        <time>2013-10-17T09:24:49Z</time>
      </trkpt>
      <trkpt lat="43.67452" lon="3.60592">
        <ele>136</ele>
        <time>2013-10-17T09:25:04Z</time>
      </trkpt>
      <trkpt lat="43.67469" lon="3.60609">
        <ele>136</ele>
        <time>2013-10-17T09:25:19Z</time>
      </trkpt>
      <trkpt lat="43.67484" lon="3.60622">
        <ele>136</ele>
        <time>2013-10-17T09:25:37Z</time>
      </trkpt>
      <trkpt lat="43.67501" lon="3.60632">
        <ele>140</ele>
        <time>2013-10-17T09:25:49Z</time>
      </trkpt>
      <trkpt lat="43.67479" lon="3.60617">
        <ele>136</ele>
        <time>2013-10-17T09:29:43Z</time>
      </trkpt>
      <trkpt lat="43.67462" lon="3.60606">
        <ele>136</ele>
        <time>2013-10-17T09:29:52Z</time>
      </trkpt>
      <trkpt lat="43.67446" lon="3.60594">
        <ele>135</ele>
        <time>2013-10-17T09:30:04Z</time>
      </trkpt>
      <trkpt lat="43.67431" lon="3.60579">
        <ele>137</ele>
        <time>2013-10-17T09:30:19Z</time>
      </trkpt>
      <trkpt lat="43.67417" lon="3.6056">
        <ele>138</ele>
        <time>2013-10-17T09:30:43Z</time>
      </trkpt>
      <trkpt lat="43.67408" lon="3.60537">
        <ele>132</ele>
        <time>2013-10-17T09:31:01Z</time>
      </trkpt>
      <trkpt lat="43.674" lon="3.60512">
        <ele>133</ele>
        <time>2013-10-17T09:31:13Z</time>
      </trkpt>
      <trkpt lat="43.67394" lon="3.60487">
        <ele>132</ele>
        <time>2013-10-17T09:31:31Z</time>
      </trkpt>
      <trkpt lat="43.67221" lon="3.60463">
        <ele>120</ele>
        <time>2013-10-17T10:50:26Z</time>
      </trkpt>
      <trkpt lat="43.67208" lon="3.60444">
        <ele>121</ele>
        <time>2013-10-17T10:51:01Z</time>
      </trkpt>
      <trkpt lat="43.67201" lon="3.60419">
        <ele>121</ele>
        <time>2013-10-17T11:01:02Z</time>
      </trkpt>
      <trkpt lat="43.67198" lon="3.60392">
        <ele>123</ele>
        <time>2013-10-17T11:01:26Z</time>
      </trkpt>
      <trkpt lat="43.67196" lon="3.60363">
        <ele>123</ele>
        <time>2013-10-17T11:01:44Z</time>
      </trkpt>
      <trkpt lat="43.67192" lon="3.60338">
        <ele>123</ele>
        <time>2013-10-17T11:02:02Z</time>
      </trkpt>
      <trkpt lat="43.67182" lon="3.60313">
        <ele>127</ele>
        <time>2013-10-17T11:02:20Z</time>
      </trkpt>
      <trkpt lat="43.6717" lon="3.60291">
        <ele>129</ele>
        <time>2013-10-17T11:02:38Z</time>
      </trkpt>
      <trkpt lat="43.67155" lon="3.60274">
        <ele>124</ele>
        <time>2013-10-17T11:02:54Z</time>
      </trkpt>
      <trkpt lat="43.67136" lon="3.60268">
        <ele>124</ele>
        <time>2013-10-17T11:03:24Z</time>
      </trkpt>
      <trkpt lat="43.67118" lon="3.60268">
        <ele>123</ele>
        <time>2013-10-17T11:03:36Z</time>
      </trkpt>
      <trkpt lat="43.671" lon="3.60262">
        <ele>121</ele>
        <time>2013-10-17T11:03:54Z</time>
      </trkpt>
      <trkpt lat="43.67084" lon="3.60249">
        <ele>117</ele>
        <time>2013-10-17T11:04:12Z</time>
      </trkpt>
      <trkpt lat="43.67062" lon="3.60247">
        <ele>118</ele>
        <time>2013-10-17T11:04:30Z</time>
      </trkpt>
      <trkpt lat="43.67043" lon="3.60231">
        <ele>119</ele>
        <time>2013-10-17T11:04:45Z</time>
      </trkpt>
      <trkpt lat="43.67027" lon="3.60216">
        <ele>119</ele>
        <time>2013-10-17T11:05:00Z</time>
      </trkpt>
      <trkpt lat="43.67007" lon="3.6021">
        <ele>119</ele>
        <time>2013-10-17T11:05:15Z</time>
      </trkpt>
      <trkpt lat="43.66989" lon="3.60209">
        <ele>122</ele>
        <time>2013-10-17T11:05:33Z</time>
      </trkpt>
      <trkpt lat="43.66971" lon="3.60216">
        <ele>122</ele>
        <time>2013-10-17T11:05:57Z</time>
      </trkpt>
      <trkpt lat="43.66952" lon="3.60215">
        <ele>123</ele>
        <time>2013-10-17T11:06:06Z</time>
      </trkpt>
      <trkpt lat="43.6693" lon="3.60219">
        <ele>124</ele>
        <time>2013-10-17T11:06:24Z</time>
      </trkpt>
      <trkpt lat="43.66909" lon="3.60226">
        <ele>129</ele>
        <time>2013-10-17T11:06:39Z</time>
      </trkpt>
      <trkpt lat="43.66888" lon="3.60235">
        <ele>130</ele>
        <time>2013-10-17T11:06:54Z</time>
      </trkpt>
      <trkpt lat="43.66866" lon="3.6024">
        <ele>131</ele>
        <time>2013-10-17T11:07:15Z</time>
      </trkpt>
      <trkpt lat="43.66849" lon="3.60259">
        <ele>130</ele>
        <time>2013-10-17T11:07:33Z</time>
      </trkpt>
      <trkpt lat="43.66836" lon="3.60284">
        <ele>131</ele>
        <time>2013-10-17T11:07:48Z</time>
      </trkpt>
      <trkpt lat="43.66819" lon="3.60299">
        <ele>137</ele>
        <time>2013-10-17T11:08:03Z</time>
      </trkpt>
      <trkpt lat="43.66804" lon="3.60312">
        <ele>138</ele>
        <time>2013-10-17T11:08:18Z</time>
      </trkpt>
      <trkpt lat="43.66791" lon="3.6033">
        <ele>139</ele>
        <time>2013-10-17T11:09:57Z</time>
      </trkpt>
      <trkpt lat="43.66775" lon="3.60348">
        <ele>138</ele>
        <time>2013-10-17T11:10:21Z</time>
      </trkpt>
      <trkpt lat="43.66759" lon="3.6036">
        <ele>138</ele>
        <time>2013-10-17T11:10:37Z</time>
      </trkpt>
      <trkpt lat="43.66747" lon="3.60385">
        <ele>145</ele>
        <time>2013-10-17T11:10:55Z</time>
      </trkpt>
      <trkpt lat="43.66741" lon="3.60412">
        <ele>139</ele>
        <time>2013-10-17T11:11:13Z</time>
      </trkpt>
      <trkpt lat="43.66731" lon="3.60436">
        <ele>143</ele>
        <time>2013-10-17T11:11:34Z</time>
      </trkpt>
      <trkpt lat="43.6673" lon="3.60463">
        <ele>145</ele>
        <time>2013-10-17T11:11:49Z</time>
      </trkpt>
      <trkpt lat="43.66727" lon="3.60488">
        <ele>144</ele>
        <time>2013-10-17T11:12:07Z</time>
      </trkpt>
      <trkpt lat="43.66728" lon="3.60517">
        <ele>145</ele>
        <time>2013-10-17T11:12:28Z</time>
      </trkpt>
      <trkpt lat="43.66724" lon="3.60545">
        <ele>146</ele>
        <time>2013-10-17T11:12:49Z</time>
      </trkpt>
      <trkpt lat="43.66718" lon="3.6057">
        <ele>147</ele>
        <time>2013-10-17T11:13:07Z</time>
      </trkpt>
      <trkpt lat="43.66708" lon="3.60591">
        <ele>149</ele>
        <time>2013-10-17T11:13:22Z</time>
      </trkpt>
      <trkpt lat="43.66695" lon="3.60613">
        <ele>151</ele>
        <time>2013-10-17T11:13:37Z</time>
      </trkpt>
      <trkpt lat="43.66688" lon="3.60637">
        <ele>151</ele>
        <time>2013-10-17T11:14:01Z</time>
      </trkpt>
      <trkpt lat="43.66676" lon="3.60659">
        <ele>153</ele>
        <time>2013-10-17T11:14:13Z</time>
      </trkpt>
      <trkpt lat="43.66671" lon="3.60683">
        <ele>154</ele>
        <time>2013-10-17T11:14:25Z</time>
      </trkpt>
      <trkpt lat="43.66664" lon="3.60707">
        <ele>163</ele>
        <time>2013-10-17T11:14:40Z</time>
      </trkpt>
      <trkpt lat="43.66653" lon="3.60732">
        <ele>163</ele>
        <time>2013-10-17T11:14:58Z</time>
      </trkpt>
      <trkpt lat="43.6665" lon="3.60758">
        <ele>163</ele>
        <time>2013-10-17T11:15:13Z</time>
      </trkpt>
      <trkpt lat="43.66647" lon="3.60783">
        <ele>166</ele>
        <time>2013-10-17T11:15:28Z</time>
      </trkpt>
      <trkpt lat="43.6665" lon="3.60811">
        <ele>167</ele>
        <time>2013-10-17T11:15:52Z</time>
      </trkpt>
      <trkpt lat="43.66642" lon="3.60834">
        <ele>171</ele>
        <time>2013-10-17T11:16:07Z</time>
      </trkpt>
      <trkpt lat="43.66632" lon="3.60859">
        <ele>174</ele>
        <time>2013-10-17T11:16:31Z</time>
      </trkpt>
      <trkpt lat="43.66623" lon="3.60882">
        <ele>175</ele>
        <time>2013-10-17T11:16:49Z</time>
      </trkpt>
      <trkpt lat="43.66609" lon="3.609">
        <ele>176</ele>
        <time>2013-10-17T11:17:07Z</time>
      </trkpt>
      <trkpt lat="43.66594" lon="3.60914">
        <ele>177</ele>
        <time>2013-10-17T11:17:22Z</time>
      </trkpt>
      <trkpt lat="43.66582" lon="3.60936">
        <ele>183</ele>
        <time>2013-10-17T11:17:58Z</time>
      </trkpt>
      <trkpt lat="43.66568" lon="3.60955">
        <ele>187</ele>
        <time>2013-10-17T11:18:13Z</time>
      </trkpt>
      <trkpt lat="43.66554" lon="3.60971">
        <ele>188</ele>
        <time>2013-10-17T11:18:34Z</time>
      </trkpt>
      <trkpt lat="43.66546" lon="3.60999">
        <ele>189</ele>
        <time>2013-10-17T11:19:01Z</time>
      </trkpt>
      <trkpt lat="43.66532" lon="3.61015">
        <ele>193</ele>
        <time>2013-10-17T11:19:22Z</time>
      </trkpt>
      <trkpt lat="43.66515" lon="3.61032">
        <ele>194</ele>
        <time>2013-10-17T11:19:37Z</time>
      </trkpt>
      <trkpt lat="43.66502" lon="3.61049">
        <ele>194</ele>
        <time>2013-10-17T11:19:55Z</time>
      </trkpt>
      <trkpt lat="43.66485" lon="3.61064">
        <ele>197</ele>
        <time>2013-10-17T11:20:13Z</time>
      </trkpt>
      <trkpt lat="43.66467" lon="3.61077">
        <ele>197</ele>
        <time>2013-10-17T11:20:28Z</time>
      </trkpt>
      <trkpt lat="43.66449" lon="3.61092">
        <ele>202</ele>
        <time>2013-10-17T11:20:49Z</time>
      </trkpt>
      <trkpt lat="43.6643" lon="3.61106">
        <ele>203</ele>
        <time>2013-10-17T11:21:07Z</time>
      </trkpt>
      <trkpt lat="43.66413" lon="3.61113">
        <ele>205</ele>
        <time>2013-10-17T11:21:22Z</time>
      </trkpt>
      <trkpt lat="43.66399" lon="3.61132">
        <ele>207</ele>
        <time>2013-10-17T11:21:40Z</time>
      </trkpt>
      <trkpt lat="43.66384" lon="3.61146">
        <ele>208</ele>
        <time>2013-10-17T11:21:58Z</time>
      </trkpt>
      <trkpt lat="43.66368" lon="3.61161">
        <ele>208</ele>
        <time>2013-10-17T11:22:25Z</time>
      </trkpt>
      <trkpt lat="43.66353" lon="3.6118">
        <ele>214</ele>
        <time>2013-10-17T11:22:43Z</time>
      </trkpt>
      <trkpt lat="43.66338" lon="3.61199">
        <ele>215</ele>
        <time>2013-10-17T11:23:01Z</time>
      </trkpt>
      <trkpt lat="43.66322" lon="3.61216">
        <ele>218</ele>
        <time>2013-10-17T11:23:22Z</time>
      </trkpt>
      <trkpt lat="43.66308" lon="3.61234">
        <ele>219</ele>
        <time>2013-10-17T11:23:43Z</time>
      </trkpt>
      <trkpt lat="43.66296" lon="3.61255">
        <ele>225</ele>
        <time>2013-10-17T11:24:04Z</time>
      </trkpt>
      <trkpt lat="43.66285" lon="3.61279">
        <ele>226</ele>
        <time>2013-10-17T11:24:25Z</time>
      </trkpt>
      <trkpt lat="43.66268" lon="3.61297">
        <ele>228</ele>
        <time>2013-10-17T11:24:46Z</time>
      </trkpt>
      <trkpt lat="43.66258" lon="3.61318">
        <ele>231</ele>
        <time>2013-10-17T11:25:04Z</time>
      </trkpt>
      <trkpt lat="43.66247" lon="3.61343">
        <ele>237</ele>
        <time>2013-10-17T11:25:28Z</time>
      </trkpt>
      <trkpt lat="43.66237" lon="3.61364">
        <ele>240</ele>
        <time>2013-10-17T11:25:49Z</time>
      </trkpt>
      <trkpt lat="43.66227" lon="3.61386">
        <ele>242</ele>
        <time>2013-10-17T11:26:10Z</time>
      </trkpt>
      <trkpt lat="43.6621" lon="3.61399">
        <ele>243</ele>
        <time>2013-10-17T11:26:31Z</time>
      </trkpt>
      <trkpt lat="43.66197" lon="3.61419">
        <ele>250</ele>
        <time>2013-10-17T11:26:49Z</time>
      </trkpt>
      <trkpt lat="43.6618" lon="3.61429">
        <ele>251</ele>
        <time>2013-10-17T11:27:04Z</time>
      </trkpt>
      <trkpt lat="43.66161" lon="3.6144">
        <ele>257</ele>
        <time>2013-10-17T11:27:28Z</time>
      </trkpt>
      <trkpt lat="43.66141" lon="3.61451">
        <ele>259</ele>
        <time>2013-10-17T11:27:49Z</time>
      </trkpt>
      <trkpt lat="43.66123" lon="3.61452">
        <ele>261</ele>
        <time>2013-10-17T11:28:10Z</time>
      </trkpt>
      <trkpt lat="43.66107" lon="3.61465">
        <ele>262</ele>
        <time>2013-10-17T11:28:34Z</time>
      </trkpt>
      <trkpt lat="43.66092" lon="3.61484">
        <ele>265</ele>
        <time>2013-10-17T11:28:52Z</time>
      </trkpt>
      <trkpt lat="43.66084" lon="3.61507">
        <ele>269</ele>
        <time>2013-10-17T11:29:19Z</time>
      </trkpt>
      <trkpt lat="43.66101" lon="3.61521">
        <ele>266</ele>
        <time>2013-10-17T11:29:37Z</time>
      </trkpt>
      <trkpt lat="43.6611" lon="3.61544">
        <ele>265</ele>
        <time>2013-10-17T11:29:55Z</time>
      </trkpt>
      <trkpt lat="43.66113" lon="3.61569">
        <ele>265</ele>
        <time>2013-10-17T11:30:10Z</time>
      </trkpt>
      <trkpt lat="43.6612" lon="3.61606">
        <ele>263</ele>
        <time>2013-10-17T11:30:34Z</time>
      </trkpt>
      <trkpt lat="43.66127" lon="3.61633">
        <ele>261</ele>
        <time>2013-10-17T11:30:46Z</time>
      </trkpt>
      <trkpt lat="43.66128" lon="3.61658">
        <ele>261</ele>
        <time>2013-10-17T11:31:01Z</time>
      </trkpt>
      <trkpt lat="43.66126" lon="3.61684">
        <ele>258</ele>
        <time>2013-10-17T11:31:19Z</time>
      </trkpt>
      <trkpt lat="43.66123" lon="3.61709">
        <ele>257</ele>
        <time>2013-10-17T11:31:37Z</time>
      </trkpt>
      <trkpt lat="43.66142" lon="3.6171">
        <ele>255</ele>
        <time>2013-10-17T11:32:28Z</time>
      </trkpt>
      <trkpt lat="43.66159" lon="3.61698">
        <ele>254</ele>
        <time>2013-10-17T11:32:52Z</time>
      </trkpt>
      <trkpt lat="43.66172" lon="3.61675">
        <ele>246</ele>
        <time>2013-10-17T11:34:22Z</time>
      </trkpt>
      <trkpt lat="43.66179" lon="3.61649">
        <ele>248</ele>
        <time>2013-10-17T11:34:37Z</time>
      </trkpt>
      <trkpt lat="43.66196" lon="3.61635">
        <ele>246</ele>
        <time>2013-10-17T11:34:56Z</time>
      </trkpt>
      <trkpt lat="43.66209" lon="3.61652">
        <ele>244</ele>
        <time>2013-10-17T11:35:17Z</time>
      </trkpt>
      <trkpt lat="43.66208" lon="3.6168">
        <ele>237</ele>
        <time>2013-10-17T11:35:32Z</time>
      </trkpt>
      <trkpt lat="43.66198" lon="3.61702">
        <ele>237</ele>
        <time>2013-10-17T11:35:47Z</time>
      </trkpt>
      <trkpt lat="43.66185" lon="3.61724">
        <ele>237</ele>
        <time>2013-10-17T11:36:05Z</time>
      </trkpt>
      <trkpt lat="43.66172" lon="3.61745">
        <ele>240</ele>
        <time>2013-10-17T11:36:23Z</time>
      </trkpt>
      <trkpt lat="43.66159" lon="3.61763">
        <ele>243</ele>
        <time>2013-10-17T11:36:38Z</time>
      </trkpt>
      <trkpt lat="43.66149" lon="3.61784">
        <ele>243</ele>
        <time>2013-10-17T11:36:56Z</time>
      </trkpt>
      <trkpt lat="43.66163" lon="3.61803">
        <ele>239</ele>
        <time>2013-10-17T11:37:59Z</time>
      </trkpt>
      <trkpt lat="43.66159" lon="3.61827">
        <ele>231</ele>
        <time>2013-10-17T11:38:17Z</time>
      </trkpt>
      <trkpt lat="43.66148" lon="3.61847">
        <ele>228</ele>
        <time>2013-10-17T11:38:35Z</time>
      </trkpt>
      <trkpt lat="43.66137" lon="3.6187">
        <ele>228</ele>
        <time>2013-10-17T11:38:53Z</time>
      </trkpt>
      <trkpt lat="43.66124" lon="3.61889">
        <ele>228</ele>
        <time>2013-10-17T11:39:13Z</time>
      </trkpt>
      <trkpt lat="43.66114" lon="3.61909">
        <ele>230</ele>
        <time>2013-10-17T11:39:30Z</time>
      </trkpt>
      <trkpt lat="43.66106" lon="3.61934">
        <ele>222</ele>
        <time>2013-10-17T11:39:49Z</time>
      </trkpt>
      <trkpt lat="43.66101" lon="3.61961">
        <ele>219</ele>
        <time>2013-10-17T11:40:13Z</time>
      </trkpt>
      <trkpt lat="43.66097" lon="3.61989">
        <ele>220</ele>
        <time>2013-10-17T11:40:31Z</time>
      </trkpt>
      <trkpt lat="43.66093" lon="3.62018">
        <ele>214</ele>
        <time>2013-10-17T11:40:49Z</time>
      </trkpt>
      <trkpt lat="43.66087" lon="3.62044">
        <ele>210</ele>
        <time>2013-10-17T11:41:40Z</time>
      </trkpt>
      <trkpt lat="43.66076" lon="3.62071">
        <ele>217</ele>
        <time>2013-10-17T11:41:55Z</time>
      </trkpt>
      <trkpt lat="43.66069" lon="3.62094">
        <ele>213</ele>
        <time>2013-10-17T11:42:28Z</time>
      </trkpt>
      <trkpt lat="43.6606" lon="3.62116">
        <ele>213</ele>
        <time>2013-10-17T11:46:07Z</time>
      </trkpt>
      <trkpt lat="43.66043" lon="3.62124">
        <ele>215</ele>
        <time>2013-10-17T11:46:25Z</time>
      </trkpt>
      <trkpt lat="43.66027" lon="3.62136">
        <ele>216</ele>
        <time>2013-10-17T11:46:46Z</time>
      </trkpt>
      <trkpt lat="43.66018" lon="3.62158">
        <ele>216</ele>
        <time>2013-10-17T11:47:26Z</time>
      </trkpt>
      <trkpt lat="43.65997" lon="3.62156">
        <ele>224</ele>
        <time>2013-10-17T11:47:38Z</time>
      </trkpt>
      <trkpt lat="43.65982" lon="3.6214">
        <ele>229</ele>
        <time>2013-10-17T11:47:53Z</time>
      </trkpt>
      <trkpt lat="43.65968" lon="3.62124">
        <ele>232</ele>
        <time>2013-10-17T11:48:14Z</time>
      </trkpt>
      <trkpt lat="43.65973" lon="3.62098">
        <ele>232</ele>
        <time>2013-10-17T11:48:39Z</time>
      </trkpt>
      <trkpt lat="43.65991" lon="3.62093">
        <ele>230</ele>
        <time>2013-10-17T11:48:57Z</time>
      </trkpt>
      <trkpt lat="43.66008" lon="3.62086">
        <ele>224</ele>
        <time>2013-10-17T11:49:15Z</time>
      </trkpt>
      <trkpt lat="43.66022" lon="3.62067">
        <ele>227</ele>
        <time>2013-10-17T11:49:33Z</time>
      </trkpt>
      <trkpt lat="43.66032" lon="3.62044">
        <ele>228</ele>
        <time>2013-10-17T11:49:51Z</time>
      </trkpt>
      <trkpt lat="43.66039" lon="3.62018">
        <ele>229</ele>
        <time>2013-10-17T11:50:12Z</time>
      </trkpt>
      <trkpt lat="43.66044" lon="3.61991">
        <ele>239</ele>
        <time>2013-10-17T11:50:32Z</time>
      </trkpt>
      <trkpt lat="43.66052" lon="3.61969">
        <ele>239</ele>
        <time>2013-10-17T11:50:47Z</time>
      </trkpt>
      <trkpt lat="43.6606" lon="3.61945">
        <ele>240</ele>
        <time>2013-10-17T11:51:05Z</time>
      </trkpt>
      <trkpt lat="43.66068" lon="3.61919">
        <ele>240</ele>
        <time>2013-10-17T11:51:23Z</time>
      </trkpt>
      <trkpt lat="43.66071" lon="3.61894">
        <ele>249</ele>
        <time>2013-10-17T11:51:47Z</time>
      </trkpt>
      <trkpt lat="43.6608" lon="3.61871">
        <ele>251</ele>
        <time>2013-10-17T11:51:59Z</time>
      </trkpt>
      <trkpt lat="43.6609" lon="3.61846">
        <ele>242</ele>
        <time>2013-10-17T11:52:17Z</time>
      </trkpt>
      <trkpt lat="43.66101" lon="3.61824">
        <ele>247</ele>
        <time>2013-10-17T11:53:20Z</time>
      </trkpt>
      <trkpt lat="43.66111" lon="3.61803">
        <ele>246</ele>
        <time>2013-10-17T11:53:41Z</time>
      </trkpt>
      <trkpt lat="43.66121" lon="3.61779">
        <ele>247</ele>
        <time>2013-10-17T11:53:56Z</time>
      </trkpt>
      <trkpt lat="43.66125" lon="3.61753">
        <ele>248</ele>
        <time>2013-10-17T11:54:14Z</time>
      </trkpt>
      <trkpt lat="43.66126" lon="3.61727">
        <ele>256</ele>
        <time>2013-10-17T11:54:32Z</time>
      </trkpt>
      <trkpt lat="43.66127" lon="3.617">
        <ele>257</ele>
        <time>2013-10-17T11:54:47Z</time>
      </trkpt>
      <trkpt lat="43.66128" lon="3.6167">
        <ele>258</ele>
        <time>2013-10-17T11:55:05Z</time>
      </trkpt>
      <trkpt lat="43.66127" lon="3.61642">
        <ele>261</ele>
        <time>2013-10-17T11:55:23Z</time>
      </trkpt>
      <trkpt lat="43.66123" lon="3.61615">
        <ele>262</ele>
        <time>2013-10-17T11:55:41Z</time>
      </trkpt>
      <trkpt lat="43.66119" lon="3.61589">
        <ele>263</ele>
        <time>2013-10-17T11:55:59Z</time>
      </trkpt>
      <trkpt lat="43.66118" lon="3.61561">
        <ele>264</ele>
        <time>2013-10-17T11:56:17Z</time>
      </trkpt>
      <trkpt lat="43.66111" lon="3.61533">
        <ele>265</ele>
        <time>2013-10-17T11:56:35Z</time>
      </trkpt>
      <trkpt lat="43.66099" lon="3.61513">
        <ele>266</ele>
        <time>2013-10-17T11:57:02Z</time>
      </trkpt>
      <trkpt lat="43.66082" lon="3.61503">
        <ele>270</ele>
        <time>2013-10-17T11:57:17Z</time>
      </trkpt>
      <trkpt lat="43.66063" lon="3.61508">
        <ele>272</ele>
        <time>2013-10-17T11:57:38Z</time>
      </trkpt>
      <trkpt lat="43.66051" lon="3.61528">
        <ele>272</ele>
        <time>2013-10-17T11:57:56Z</time>
      </trkpt>
      <trkpt lat="43.66042" lon="3.61551">
        <ele>273</ele>
        <time>2013-10-17T11:58:14Z</time>
      </trkpt>
      <trkpt lat="43.66032" lon="3.61574">
        <ele>274</ele>
        <time>2013-10-17T11:58:32Z</time>
      </trkpt>
      <trkpt lat="43.66019" lon="3.61593">
        <ele>275</ele>
        <time>2013-10-17T12:06:32Z</time>
      </trkpt>
      <trkpt lat="43.66014" lon="3.61619">
        <ele>275</ele>
        <time>2013-10-17T12:06:50Z</time>
      </trkpt>
      <trkpt lat="43.66009" lon="3.61643">
        <ele>275</ele>
        <time>2013-10-17T12:07:05Z</time>
      </trkpt>
      <trkpt lat="43.66002" lon="3.61666">
        <ele>278</ele>
        <time>2013-10-17T12:07:20Z</time>
      </trkpt>
      <trkpt lat="43.65993" lon="3.61691">
        <ele>276</ele>
        <time>2013-10-17T12:07:38Z</time>
      </trkpt>
      <trkpt lat="43.6598" lon="3.61711">
        <ele>275</ele>
        <time>2013-10-17T12:07:53Z</time>
      </trkpt>
      <trkpt lat="43.6597" lon="3.61735">
        <ele>276</ele>
        <time>2013-10-17T12:08:11Z</time>
      </trkpt>
      <trkpt lat="43.65954" lon="3.61755">
        <ele>276</ele>
        <time>2013-10-17T12:08:26Z</time>
      </trkpt>
      <trkpt lat="43.6594" lon="3.61774">
        <ele>276</ele>
        <time>2013-10-17T12:08:41Z</time>
      </trkpt>
      <trkpt lat="43.65925" lon="3.61792">
        <ele>276</ele>
        <time>2013-10-17T12:08:59Z</time>
      </trkpt>
      <trkpt lat="43.65906" lon="3.61806">
        <ele>278</ele>
        <time>2013-10-17T12:09:14Z</time>
      </trkpt>
      <trkpt lat="43.65891" lon="3.61822">
        <ele>278</ele>
        <time>2013-10-17T12:09:27Z</time>
      </trkpt>
      <trkpt lat="43.65874" lon="3.61838">
        <ele>280</ele>
        <time>2013-10-17T12:09:42Z</time>
      </trkpt>
      <trkpt lat="43.65859" lon="3.61854">
        <ele>280</ele>
        <time>2013-10-17T12:09:57Z</time>
      </trkpt>
      <trkpt lat="43.65841" lon="3.61868">
        <ele>280</ele>
        <time>2013-10-17T12:10:15Z</time>
      </trkpt>
      <trkpt lat="43.65817" lon="3.61896">
        <ele>281</ele>
        <time>2013-10-17T12:10:40Z</time>
      </trkpt>
      <trkpt lat="43.65801" lon="3.61907">
        <ele>281</ele>
        <time>2013-10-17T12:10:49Z</time>
      </trkpt>
      <trkpt lat="43.65788" lon="3.61929">
        <ele>280</ele>
        <time>2013-10-17T12:11:10Z</time>
      </trkpt>
      <trkpt lat="43.65771" lon="3.61944">
        <ele>280</ele>
        <time>2013-10-17T12:11:28Z</time>
      </trkpt>
      <trkpt lat="43.65751" lon="3.61957">
        <ele>280</ele>
        <time>2013-10-17T12:11:43Z</time>
      </trkpt>
      <trkpt lat="43.65736" lon="3.61972">
        <ele>282</ele>
        <time>2013-10-17T12:11:58Z</time>
      </trkpt>
      <trkpt lat="43.65726" lon="3.61995">
        <ele>282</ele>
        <time>2013-10-17T12:12:13Z</time>
      </trkpt>
      <trkpt lat="43.65719" lon="3.62022">
        <ele>283</ele>
        <time>2013-10-17T12:12:28Z</time>
      </trkpt>
      <trkpt lat="43.65714" lon="3.62048">
        <ele>283</ele>
        <time>2013-10-17T12:12:43Z</time>
      </trkpt>
      <trkpt lat="43.65709" lon="3.62078">
        <ele>283</ele>
        <time>2013-10-17T12:13:01Z</time>
      </trkpt>
      <trkpt lat="43.65704" lon="3.62103">
        <ele>283</ele>
        <time>2013-10-17T12:13:16Z</time>
      </trkpt>
      <trkpt lat="43.65699" lon="3.62127">
        <ele>284</ele>
        <time>2013-10-17T12:13:31Z</time>
      </trkpt>
      <trkpt lat="43.65692" lon="3.62155">
        <ele>286</ele>
        <time>2013-10-17T12:13:49Z</time>
      </trkpt>
      <trkpt lat="43.65689" lon="3.6218">
        <ele>288</ele>
        <time>2013-10-17T12:14:04Z</time>
      </trkpt>
      <trkpt lat="43.65686" lon="3.62206">
        <ele>289</ele>
        <time>2013-10-17T12:14:25Z</time>
      </trkpt>
      <trkpt lat="43.65684" lon="3.62235">
        <ele>291</ele>
        <time>2013-10-17T12:14:40Z</time>
      </trkpt>
      <trkpt lat="43.65683" lon="3.62264">
        <ele>294</ele>
        <time>2013-10-17T12:15:01Z</time>
      </trkpt>
      <trkpt lat="43.65678" lon="3.62288">
        <ele>294</ele>
        <time>2013-10-17T12:15:16Z</time>
      </trkpt>
      <trkpt lat="43.65675" lon="3.62314">
        <ele>296</ele>
        <time>2013-10-17T12:15:31Z</time>
      </trkpt>
      <trkpt lat="43.65674" lon="3.62343">
        <ele>298</ele>
        <time>2013-10-17T12:15:49Z</time>
      </trkpt>
      <trkpt lat="43.65675" lon="3.62371">
        <ele>298</ele>
        <time>2013-10-17T12:16:07Z</time>
      </trkpt>
      <trkpt lat="43.65676" lon="3.62397">
        <ele>299</ele>
        <time>2013-10-17T12:16:22Z</time>
      </trkpt>
      <trkpt lat="43.65679" lon="3.62423">
        <ele>301</ele>
        <time>2013-10-17T12:16:37Z</time>
      </trkpt>
      <trkpt lat="43.6568" lon="3.62448">
        <ele>301</ele>
        <time>2013-10-17T12:16:52Z</time>
      </trkpt>
      <trkpt lat="43.65681" lon="3.62473">
        <ele>302</ele>
        <time>2013-10-17T12:17:07Z</time>
      </trkpt>
      <trkpt lat="43.65686" lon="3.62497">
        <ele>302</ele>
        <time>2013-10-17T12:20:29Z</time>
      </trkpt>
      <trkpt lat="43.65683" lon="3.62524">
        <ele>302</ele>
        <time>2013-10-17T12:20:44Z</time>
      </trkpt>
      <trkpt lat="43.65686" lon="3.62552">
        <ele>301</ele>
        <time>2013-10-17T12:21:08Z</time>
      </trkpt>
      <trkpt lat="43.65693" lon="3.62575">
        <ele>301</ele>
        <time>2013-10-17T12:21:20Z</time>
      </trkpt>
      <trkpt lat="43.65697" lon="3.62602">
        <ele>299</ele>
        <time>2013-10-17T12:21:35Z</time>
      </trkpt>
      <trkpt lat="43.65705" lon="3.62631">
        <ele>298</ele>
        <time>2013-10-17T12:22:02Z</time>
      </trkpt>
      <trkpt lat="43.65709" lon="3.62656">
        <ele>298</ele>
        <time>2013-10-17T12:22:17Z</time>
      </trkpt>
      <trkpt lat="43.65715" lon="3.62682">
        <ele>296</ele>
        <time>2013-10-17T12:22:32Z</time>
      </trkpt>
      <trkpt lat="43.65721" lon="3.62705">
        <ele>297</ele>
        <time>2013-10-17T12:22:41Z</time>
      </trkpt>
      <trkpt lat="43.65732" lon="3.62731">
        <ele>298</ele>
        <time>2013-10-17T12:22:56Z</time>
      </trkpt>
      <trkpt lat="43.65742" lon="3.62755">
        <ele>301</ele>
        <time>2013-10-17T12:23:14Z</time>
      </trkpt>
      <trkpt lat="43.65746" lon="3.62785">
        <ele>302</ele>
        <time>2013-10-17T12:23:38Z</time>
      </trkpt>
      <trkpt lat="43.65755" lon="3.6281">
        <ele>307</ele>
        <time>2013-10-17T12:24:05Z</time>
      </trkpt>
      <trkpt lat="43.65754" lon="3.62836">
        <ele>313</ele>
        <time>2013-10-17T12:24:23Z</time>
      </trkpt>
      <trkpt lat="43.65758" lon="3.62869">
        <ele>317</ele>
        <time>2013-10-17T12:24:32Z</time>
      </trkpt>
      <trkpt lat="43.65764" lon="3.62894">
        <ele>318</ele>
        <time>2013-10-17T12:24:41Z</time>
      </trkpt>
      <trkpt lat="43.65764" lon="3.62924">
        <ele>321</ele>
        <time>2013-10-17T12:25:05Z</time>
      </trkpt>
      <trkpt lat="43.65765" lon="3.62957">
        <ele>325</ele>
        <time>2013-10-17T12:25:17Z</time>
      </trkpt>
      <trkpt lat="43.6576" lon="3.62982">
        <ele>323</ele>
        <time>2013-10-17T12:25:29Z</time>
      </trkpt>
      <trkpt lat="43.65765" lon="3.63006">
        <ele>324</ele>
        <time>2013-10-17T12:25:41Z</time>
      </trkpt>
      <trkpt lat="43.65774" lon="3.6303">
        <ele>328</ele>
        <time>2013-10-17T12:26:05Z</time>
      </trkpt>
      <trkpt lat="43.65787" lon="3.63056">
        <ele>330</ele>
        <time>2013-10-17T12:26:23Z</time>
      </trkpt>
      <trkpt lat="43.65799" lon="3.63079">
        <ele>332</ele>
        <time>2013-10-17T12:26:32Z</time>
      </trkpt>
      <trkpt lat="43.65808" lon="3.63103">
        <ele>334</ele>
        <time>2013-10-17T12:26:59Z</time>
      </trkpt>
      <trkpt lat="43.65817" lon="3.63133">
        <ele>334</ele>
        <time>2013-10-17T12:27:11Z</time>
      </trkpt>
      <trkpt lat="43.65823" lon="3.63161">
        <ele>336</ele>
        <time>2013-10-17T12:27:35Z</time>
      </trkpt>
      <trkpt lat="43.65828" lon="3.63193">
        <ele>337</ele>
        <time>2013-10-17T12:27:50Z</time>
      </trkpt>
      <trkpt lat="43.65842" lon="3.63212">
        <ele>337</ele>
        <time>2013-10-17T12:27:59Z</time>
      </trkpt>
      <trkpt lat="43.65857" lon="3.63228">
        <ele>336</ele>
        <time>2013-10-17T12:28:08Z</time>
      </trkpt>
      <trkpt lat="43.65862" lon="3.63257">
        <ele>331</ele>
        <time>2013-10-17T12:28:29Z</time>
      </trkpt>
      <trkpt lat="43.65848" lon="3.63236">
        <ele>336</ele>
        <time>2013-10-17T12:29:08Z</time>
      </trkpt>
      <trkpt lat="43.65831" lon="3.63217">
        <ele>337</ele>
        <time>2013-10-17T12:30:05Z</time>
      </trkpt>
      <trkpt lat="43.65811" lon="3.63218">
        <ele>337</ele>
        <time>2013-10-17T12:30:14Z</time>
      </trkpt>
      <trkpt lat="43.65791" lon="3.63227">
        <ele>338</ele>
        <time>2013-10-17T12:30:26Z</time>
      </trkpt>
      <trkpt lat="43.65775" lon="3.63246">
        <ele>339</ele>
        <time>2013-10-17T12:30:38Z</time>
      </trkpt>
      <trkpt lat="43.6578" lon="3.63273">
        <ele>343</ele>
        <time>2013-10-17T12:31:41Z</time>
      </trkpt>
      <trkpt lat="43.6577" lon="3.63298">
        <ele>345</ele>
        <time>2013-10-17T12:32:05Z</time>
      </trkpt>
      <trkpt lat="43.65765" lon="3.63327">
        <ele>348</ele>
        <time>2013-10-17T12:32:20Z</time>
      </trkpt>
      <trkpt lat="43.65756" lon="3.63354">
        <ele>348</ele>
        <time>2013-10-17T12:32:38Z</time>
      </trkpt>
      <trkpt lat="43.65745" lon="3.63382">
        <ele>357</ele>
        <time>2013-10-17T12:33:08Z</time>
      </trkpt>
      <trkpt lat="43.65733" lon="3.63405">
        <ele>357</ele>
        <time>2013-10-17T12:33:26Z</time>
      </trkpt>
      <trkpt lat="43.65713" lon="3.63417">
        <ele>359</ele>
        <time>2013-10-17T12:33:47Z</time>
      </trkpt>
      <trkpt lat="43.65692" lon="3.63435">
        <ele>359</ele>
        <time>2013-10-17T12:33:56Z</time>
      </trkpt>
      <trkpt lat="43.65669" lon="3.63442">
        <ele>360</ele>
        <time>2013-10-17T12:34:14Z</time>
      </trkpt>
      <trkpt lat="43.65684" lon="3.63426">
        <ele>361</ele>
        <time>2013-10-17T12:43:20Z</time>
      </trkpt>
      <trkpt lat="43.65702" lon="3.63421">
        <ele>358</ele>
        <time>2013-10-17T12:43:32Z</time>
      </trkpt>
      <trkpt lat="43.65718" lon="3.63405">
        <ele>358</ele>
        <time>2013-10-17T12:44:02Z</time>
      </trkpt>
      <trkpt lat="43.65729" lon="3.63381">
        <ele>357</ele>
        <time>2013-10-17T12:44:14Z</time>
      </trkpt>
      <trkpt lat="43.65744" lon="3.63365">
        <ele>357</ele>
        <time>2013-10-17T12:44:32Z</time>
      </trkpt>
      <trkpt lat="43.6576" lon="3.63345">
        <ele>349</ele>
        <time>2013-10-17T12:44:47Z</time>
      </trkpt>
      <trkpt lat="43.65767" lon="3.6332">
        <ele>347</ele>
        <time>2013-10-17T12:44:59Z</time>
      </trkpt>
      <trkpt lat="43.6578" lon="3.633">
        <ele>344</ele>
        <time>2013-10-17T12:45:20Z</time>
      </trkpt>
      <trkpt lat="43.65791" lon="3.63279">
        <ele>342</ele>
        <time>2013-10-17T12:45:38Z</time>
      </trkpt>
      <trkpt lat="43.65775" lon="3.63259">
        <ele>343</ele>
        <time>2013-10-17T12:45:56Z</time>
      </trkpt>
      <trkpt lat="43.6576" lon="3.63243">
        <ele>341</ele>
        <time>2013-10-17T12:46:08Z</time>
      </trkpt>
      <trkpt lat="43.65764" lon="3.63219">
        <ele>338</ele>
        <time>2013-10-17T12:46:29Z</time>
      </trkpt>
      <trkpt lat="43.65782" lon="3.6321">
        <ele>337</ele>
        <time>2013-10-17T12:46:47Z</time>
      </trkpt>
      <trkpt lat="43.65801" lon="3.63206">
        <ele>337</ele>
        <time>2013-10-17T12:47:02Z</time>
      </trkpt>
      <trkpt lat="43.65822" lon="3.63205">
        <ele>337</ele>
        <time>2013-10-17T12:47:17Z</time>
      </trkpt>
      <trkpt lat="43.6584" lon="3.63218">
        <ele>337</ele>
        <time>2013-10-17T12:47:38Z</time>
      </trkpt>
      <trkpt lat="43.65853" lon="3.63236">
        <ele>336</ele>
        <time>2013-10-17T12:47:53Z</time>
      </trkpt>
      <trkpt lat="43.65866" lon="3.63258">
        <ele>331</ele>
        <time>2013-10-17T12:48:08Z</time>
      </trkpt>
      <trkpt lat="43.65878" lon="3.63278">
        <ele>330</ele>
        <time>2013-10-17T12:48:29Z</time>
      </trkpt>
      <trkpt lat="43.65879" lon="3.63305">
        <ele>328</ele>
        <time>2013-10-17T12:48:41Z</time>
      </trkpt>
      <trkpt lat="43.6588" lon="3.63332">
        <ele>327</ele>
        <time>2013-10-17T12:48:50Z</time>
      </trkpt>
      <trkpt lat="43.65879" lon="3.63362">
        <ele>319</ele>
        <time>2013-10-17T12:49:17Z</time>
      </trkpt>
      <trkpt lat="43.65885" lon="3.63388">
        <ele>316</ele>
        <time>2013-10-17T12:49:35Z</time>
      </trkpt>
      <trkpt lat="43.65876" lon="3.63411">
        <ele>316</ele>
        <time>2013-10-17T12:49:47Z</time>
      </trkpt>
      <trkpt lat="43.65861" lon="3.6343">
        <ele>309</ele>
        <time>2013-10-17T12:49:59Z</time>
      </trkpt>
      <trkpt lat="43.65852" lon="3.63453">
        <ele>307</ele>
        <time>2013-10-17T12:50:23Z</time>
      </trkpt>
      <trkpt lat="43.65854" lon="3.63485">
        <ele>303</ele>
        <time>2013-10-17T12:50:38Z</time>
      </trkpt>
      <trkpt lat="43.65851" lon="3.6351">
        <ele>295</ele>
        <time>2013-10-17T12:50:50Z</time>
      </trkpt>
      <trkpt lat="43.6584" lon="3.63538">
        <ele>290</ele>
        <time>2013-10-17T12:51:20Z</time>
      </trkpt>
      <trkpt lat="43.65828" lon="3.63562">
        <ele>304</ele>
        <time>2013-10-17T12:51:29Z</time>
      </trkpt>
      <trkpt lat="43.65822" lon="3.63586">
        <ele>292</ele>
        <time>2013-10-17T12:51:44Z</time>
      </trkpt>
      <trkpt lat="43.65811" lon="3.63607">
        <ele>293</ele>
        <time>2013-10-17T12:52:08Z</time>
      </trkpt>
      <trkpt lat="43.65799" lon="3.63628">
        <ele>291</ele>
        <time>2013-10-17T12:52:17Z</time>
      </trkpt>
      <trkpt lat="43.65788" lon="3.63657">
        <ele>289</ele>
        <time>2013-10-17T12:52:38Z</time>
      </trkpt>
      <trkpt lat="43.65773" lon="3.63673">
        <ele>278</ele>
        <time>2013-10-17T12:52:47Z</time>
      </trkpt>
      <trkpt lat="43.65757" lon="3.63695">
        <ele>276</ele>
        <time>2013-10-17T12:53:02Z</time>
      </trkpt>
      <trkpt lat="43.65741" lon="3.63707">
        <ele>280</ele>
        <time>2013-10-17T12:53:17Z</time>
      </trkpt>
      <trkpt lat="43.65756" lon="3.63695">
        <ele>276</ele>
        <time>2013-10-17T12:54:32Z</time>
      </trkpt>
      <trkpt lat="43.65745" lon="3.63721">
        <ele>277</ele>
        <time>2013-10-17T12:54:41Z</time>
      </trkpt>
      <trkpt lat="43.65736" lon="3.63744">
        <ele>272</ele>
        <time>2013-10-17T12:54:59Z</time>
      </trkpt>
      <trkpt lat="43.65733" lon="3.63772">
        <ele>259</ele>
        <time>2013-10-17T12:55:53Z</time>
      </trkpt>
      <trkpt lat="43.65727" lon="3.63797">
        <ele>254</ele>
        <time>2013-10-17T12:56:35Z</time>
      </trkpt>
      <trkpt lat="43.65726" lon="3.63824">
        <ele>250</ele>
        <time>2013-10-17T12:57:02Z</time>
      </trkpt>
      <trkpt lat="43.65722" lon="3.63849">
        <ele>237</ele>
        <time>2013-10-17T12:57:32Z</time>
      </trkpt>
      <trkpt lat="43.65715" lon="3.63876">
        <ele>234</ele>
        <time>2013-10-17T12:58:14Z</time>
      </trkpt>
      <trkpt lat="43.65711" lon="3.63903">
        <ele>232</ele>
        <time>2013-10-17T12:58:26Z</time>
      </trkpt>
      <trkpt lat="43.65714" lon="3.63931">
        <ele>221</ele>
        <time>2013-10-17T12:58:44Z</time>
      </trkpt>
      <trkpt lat="43.65713" lon="3.63962">
        <ele>219</ele>
        <time>2013-10-17T12:58:59Z</time>
      </trkpt>
      <trkpt lat="43.65709" lon="3.63987">
        <ele>217</ele>
        <time>2013-10-17T12:59:14Z</time>
      </trkpt>
      <trkpt lat="43.65728" lon="3.6398">
        <ele>217</ele>
        <time>2013-10-17T13:10:55Z</time>
      </trkpt>
      <trkpt lat="43.65747" lon="3.6397">
        <ele>217</ele>
        <time>2013-10-17T13:11:16Z</time>
      </trkpt>
      <trkpt lat="43.65765" lon="3.63964">
        <ele>216</ele>
        <time>2013-10-17T13:11:25Z</time>
      </trkpt>
      <trkpt lat="43.65776" lon="3.63943">
        <ele>218</ele>
        <time>2013-10-17T13:11:43Z</time>
      </trkpt>
      <trkpt lat="43.65794" lon="3.63941">
        <ele>218</ele>
        <time>2013-10-17T13:11:58Z</time>
      </trkpt>
      <trkpt lat="43.65814" lon="3.63937">
        <ele>218</ele>
        <time>2013-10-17T13:12:10Z</time>
      </trkpt>
      <trkpt lat="43.65831" lon="3.63943">
        <ele>217</ele>
        <time>2013-10-17T13:12:25Z</time>
      </trkpt>
      <trkpt lat="43.65849" lon="3.6395">
        <ele>216</ele>
        <time>2013-10-17T13:12:40Z</time>
      </trkpt>
      <trkpt lat="43.65867" lon="3.63962">
        <ele>216</ele>
        <time>2013-10-17T13:12:55Z</time>
      </trkpt>
      <trkpt lat="43.65885" lon="3.63976">
        <ele>216</ele>
        <time>2013-10-17T13:13:10Z</time>
      </trkpt>
      <trkpt lat="43.65905" lon="3.63983">
        <ele>215</ele>
        <time>2013-10-17T13:13:25Z</time>
      </trkpt>
      <trkpt lat="43.65922" lon="3.63993">
        <ele>215</ele>
        <time>2013-10-17T13:13:40Z</time>
      </trkpt>
      <trkpt lat="43.65941" lon="3.64005">
        <ele>214</ele>
        <time>2013-10-17T13:13:58Z</time>
      </trkpt>
      <trkpt lat="43.65952" lon="3.64025">
        <ele>214</ele>
        <time>2013-10-17T13:14:13Z</time>
      </trkpt>
      <trkpt lat="43.65969" lon="3.64042">
        <ele>214</ele>
        <time>2013-10-17T13:14:28Z</time>
      </trkpt>
      <trkpt lat="43.65985" lon="3.64057">
        <ele>213</ele>
        <time>2013-10-17T13:14:40Z</time>
      </trkpt>
      <trkpt lat="43.66002" lon="3.64072">
        <ele>211</ele>
        <time>2013-10-17T13:14:52Z</time>
      </trkpt>
      <trkpt lat="43.66018" lon="3.64089">
        <ele>213</ele>
        <time>2013-10-17T13:15:10Z</time>
      </trkpt>
      <trkpt lat="43.66032" lon="3.64105">
        <ele>213</ele>
        <time>2013-10-17T13:15:28Z</time>
      </trkpt>
      <trkpt lat="43.66049" lon="3.6412">
        <ele>212</ele>
        <time>2013-10-17T13:15:46Z</time>
      </trkpt>
      <trkpt lat="43.66065" lon="3.64132">
        <ele>211</ele>
        <time>2013-10-17T13:16:07Z</time>
      </trkpt>
      <trkpt lat="43.66082" lon="3.64143">
        <ele>211</ele>
        <time>2013-10-17T13:16:16Z</time>
      </trkpt>
      <trkpt lat="43.661" lon="3.64162">
        <ele>207</ele>
        <time>2013-10-17T13:16:28Z</time>
      </trkpt>
      <trkpt lat="43.66114" lon="3.64185">
        <ele>209</ele>
        <time>2013-10-17T13:16:43Z</time>
      </trkpt>
      <trkpt lat="43.6613" lon="3.64204">
        <ele>208</ele>
        <time>2013-10-17T13:16:58Z</time>
      </trkpt>
      <trkpt lat="43.66139" lon="3.64228">
        <ele>208</ele>
        <time>2013-10-17T13:17:19Z</time>
      </trkpt>
      <trkpt lat="43.66158" lon="3.64239">
        <ele>207</ele>
        <time>2013-10-17T13:17:31Z</time>
      </trkpt>
      <trkpt lat="43.66174" lon="3.64255">
        <ele>206</ele>
        <time>2013-10-17T13:17:49Z</time>
      </trkpt>
      <trkpt lat="43.66192" lon="3.64272">
        <ele>205</ele>
        <time>2013-10-17T13:18:04Z</time>
      </trkpt>
      <trkpt lat="43.66202" lon="3.64292">
        <ele>205</ele>
        <time>2013-10-17T13:18:19Z</time>
      </trkpt>
      <trkpt lat="43.66216" lon="3.64312">
        <ele>205</ele>
        <time>2013-10-17T13:18:34Z</time>
      </trkpt>
      <trkpt lat="43.66228" lon="3.64336">
        <ele>205</ele>
        <time>2013-10-17T13:18:52Z</time>
      </trkpt>
      <trkpt lat="43.66215" lon="3.64357">
        <ele>205</ele>
        <time>2013-10-17T13:19:07Z</time>
      </trkpt>
      <trkpt lat="43.66204" lon="3.64378">
        <ele>205</ele>
        <time>2013-10-17T13:19:22Z</time>
      </trkpt>
      <trkpt lat="43.66208" lon="3.64406">
        <ele>205</ele>
        <time>2013-10-17T13:19:40Z</time>
      </trkpt>
      <trkpt lat="43.66222" lon="3.64422">
        <ele>203</ele>
        <time>2013-10-17T13:19:58Z</time>
      </trkpt>
      <trkpt lat="43.66237" lon="3.64437">
        <ele>203</ele>
        <time>2013-10-17T13:20:13Z</time>
      </trkpt>
      <trkpt lat="43.66257" lon="3.64449">
        <ele>206</ele>
        <time>2013-10-17T13:20:28Z</time>
      </trkpt>
      <trkpt lat="43.66274" lon="3.64462">
        <ele>207</ele>
        <time>2013-10-17T13:20:49Z</time>
      </trkpt>
      <trkpt lat="43.66293" lon="3.64474">
        <ele>208</ele>
        <time>2013-10-17T13:21:07Z</time>
      </trkpt>
      <trkpt lat="43.66312" lon="3.64487">
        <ele>209</ele>
        <time>2013-10-17T13:21:25Z</time>
      </trkpt>
      <trkpt lat="43.66332" lon="3.64496">
        <ele>211</ele>
        <time>2013-10-17T13:21:43Z</time>
      </trkpt>
      <trkpt lat="43.66349" lon="3.64505">
        <ele>212</ele>
        <time>2013-10-17T13:21:55Z</time>
      </trkpt>
      <trkpt lat="43.66341" lon="3.64536">
        <ele>211</ele>
        <time>2013-10-17T13:22:04Z</time>
      </trkpt>
      <trkpt lat="43.66363" lon="3.64524">
        <ele>212</ele>
        <time>2013-10-17T13:22:16Z</time>
      </trkpt>
      <trkpt lat="43.66379" lon="3.64537">
        <ele>212</ele>
        <time>2013-10-17T13:22:28Z</time>
      </trkpt>
      <trkpt lat="43.664" lon="3.64546">
        <ele>212</ele>
        <time>2013-10-17T13:22:43Z</time>
      </trkpt>
      <trkpt lat="43.66418" lon="3.64556">
        <ele>213</ele>
        <time>2013-10-17T13:22:56Z</time>
      </trkpt>
      <trkpt lat="43.66437" lon="3.6456">
        <ele>213</ele>
        <time>2013-10-17T13:23:17Z</time>
      </trkpt>
    </trkseg>
  </trk>
</gpx>